Wetterdaten: aktuell Donnerstag, 21.02.2019 00:44
Datum Zeit Temp. Aussen Temp. o. S. +5cm Feuchte Auss Luftdruck Regen Sonnenschein Regendauer Solar Windben Empfang
21.02.2019 00:44 6,2 C 5,6 C 4,4 C 86 % 1022,9 hPa 0,0 l/m 0 min 0 min 0 W/m 6,4 km/h (2 Bft) 100,00 %
21.02.2019 00:42 6,3 C 5,6 C 4,4 C 86 % 1022,9 hPa 0,0 l/m 0 min 0 min 0 W/m 6,4 km/h (2 Bft) 97,83 %
21.02.2019 00:40 6,3 C 5,6 C 5,0 C 86 % 1022,8 hPa 0,0 l/m 0 min 0 min 0 W/m 6,4 km/h (2 Bft) 100,00 %
21.02.2019 00:38 6,3 C 5,6 C 5,0 C 86 % 1022,8 hPa 0,0 l/m 0 min 0 min 0 W/m 6,4 km/h (2 Bft) 97,83 %
21.02.2019 00:36 6,3 C 5,6 C 5,0 C 86 % 1022,8 hPa 0,0 l/m 0 min 0 min 0 W/m 6,4 km/h (2 Bft) 100,00 %
21.02.2019 00:34 6,3 C 5,6 C 5,0 C 86 % 1022,9 hPa 0,0 l/m 0 min 0 min 0 W/m 12,9 km/h (3 Bft) 95,74 %
21.02.2019 00:32 6,3 C 5,6 C 5,0 C 86 % 1022,9 hPa 0,0 l/m 0 min 0 min 0 W/m 12,9 km/h (3 Bft) 97,87 %
21.02.2019 00:30 6,3 C 5,6 C 5,0 C 86 % 1023,0 hPa 0,0 l/m 0 min 0 min 0 W/m 9,7 km/h (2 Bft) 97,87 %
21.02.2019 00:28 6,3 C 5,6 C 5,0 C 86 % 1022,9 hPa 0,0 l/m 0 min 0 min 0 W/m 3,2 km/h (1 Bft) 97,83 %
21.02.2019 00:26 6,3 C 5,6 C 5,0 C 86 % 1022,9 hPa 0,0 l/m 0 min 0 min 0 W/m 6,4 km/h (2 Bft) 97,87 %
21.02.2019 00:24 6,3 C 5,6 C 5,0 C 86 % 1022,9 hPa 0,0 l/m 0 min 0 min 0 W/m 9,7 km/h (2 Bft) 97,87 %
21.02.2019 00:22 6,3 C 5,6 C 5,0 C 86 % 1022,9 hPa 0,0 l/m 0 min 0 min 0 W/m 12,9 km/h (3 Bft) 97,87 %
21.02.2019 00:20 6,3 C 5,6 C 5,0 C 86 % 1022,8 hPa 0,0 l/m 0 min 0 min 0 W/m 9,7 km/h (2 Bft) 95,74 %
21.02.2019 00:18 6,3 C 5,6 C 5,0 C 85 % 1022,9 hPa 0,0 l/m 0 min 0 min 0 W/m 6,4 km/h (2 Bft) 97,87 %
21.02.2019 00:16 6,3 C 5,6 C 5,0 C 85 % 1022,9 hPa 0,0 l/m 0 min 0 min 0 W/m 9,7 km/h (2 Bft) 97,87 %
21.02.2019 00:14 6,3 C 5,6 C 5,0 C 85 % 1022,8 hPa 0,0 l/m 0 min 0 min 0 W/m 12,9 km/h (3 Bft) 97,83 %
21.02.2019 00:12 6,4 C 5,6 C 5,0 C 85 % 1022,8 hPa 0,0 l/m 0 min 0 min 0 W/m 6,4 km/h (2 Bft) 97,87 %
21.02.2019 00:10 6,4 C 5,6 C 5,0 C 85 % 1022,8 hPa 0,0 l/m 0 min 0 min 0 W/m 9,7 km/h (2 Bft) 97,87 %
21.02.2019 00:08 6,4 C 5,6 C 5,0 C 85 % 1022,8 hPa 0,0 l/m 0 min 0 min 0 W/m 9,7 km/h (2 Bft) 95,74 %
21.02.2019 00:04 6,4 C 5,6 C 5,0 C 85 % 1022,9 hPa 0,0 l/m 0 min 0 min 0 W/m 9,7 km/h (2 Bft) 97,87 %
21.02.2019 00:02 6,4 C 5,6 C 5,0 C 85 % 1022,9 hPa 0,0 l/m 0 min 0 min 0 W/m 6,4 km/h (2 Bft) 97,62 %
21.02.2019 00:00 6,4 C 5,6 C 5,0 C 84 % 1022,9 hPa 0,0 l/m 0 min 0 min 0 W/m 9,7 km/h (2 Bft) 93,62 %
20.02.2019 23:58 6,4 C 5,6 C 5,0 C 84 % 1022,9 hPa 0,0 l/m 0 min 0 min 0 W/m 6,4 km/h (2 Bft) 95,74 %
20.02.2019 23:56 6,5 C 5,6 C 5,0 C 84 % 1022,8 hPa 0,0 l/m 0 min 0 min 0 W/m 6,4 km/h (2 Bft) 93,62 %
20.02.2019 23:54 6,5 C 5,6 C 5,0 C 84 % 1022,7 hPa 0,0 l/m 0 min 0 min 0 W/m 6,4 km/h (2 Bft) 95,74 %
20.02.2019 23:52 6,6 C 5,6 C 5,0 C 84 % 1022,8 hPa 0,0 l/m 0 min 0 min 0 W/m 6,4 km/h (2 Bft) 95,65 %
20.02.2019 23:50 6,6 C 5,6 C 4,4 C 84 % 1022,8 hPa 0,0 l/m 0 min 0 min 0 W/m 9,7 km/h (2 Bft) 95,74 %
20.02.2019 23:48 6,6 C 5,6 C 4,4 C 84 % 1022,8 hPa 0,0 l/m 0 min 0 min 0 W/m 6,4 km/h (2 Bft) 95,74 %
20.02.2019 23:46 6,6 C 5,6 C 5,0 C 84 % 1022,8 hPa 0,0 l/m 0 min 0 min 0 W/m 0,0 km/h (0 Bft) 95,74 %
20.02.2019 23:44 6,7 C 5,6 C 5,0 C 84 % 1022,8 hPa 0,0 l/m 0 min 0 min 0 W/m 0,0 km/h (0 Bft) 93,48 %
20.02.2019 23:42 6,7 C 5,6 C 5,0 C 84 % 1022,7 hPa 0,0 l/m 0 min 0 min 0 W/m 0,0 km/h (0 Bft) 97,87 %
20.02.2019 23:40 6,7 C 5,6 C 5,0 C 84 % 1022,7 hPa 0,0 l/m 0 min 0 min 0 W/m 0,0 km/h (0 Bft) 97,83 %
20.02.2019 23:38 6,7 C 5,6 C 5,0 C 84 % 1022,7 hPa 0,0 l/m 0 min 0 min 0 W/m 3,2 km/h (1 Bft) 97,87 %
20.02.2019 23:36 6,8 C 5,6 C 5,0 C 84 % 1022,7 hPa 0,0 l/m 0 min 0 min 0 W/m 6,4 km/h (2 Bft) 97,87 %
20.02.2019 23:34 6,8 C 5,6 C 5,0 C 84 % 1022,7 hPa 0,0 l/m 0 min 0 min 0 W/m 6,4 km/h (2 Bft) 95,74 %
20.02.2019 23:32 6,8 C 5,6 C 5,0 C 83 % 1022,7 hPa 0,0 l/m 0 min 0 min 0 W/m 6,4 km/h (2 Bft) 95,74 %
20.02.2019 23:30 6,8 C 5,6 C 5,0 C 83 % 1022,7 hPa 0,0 l/m 0 min 0 min 0 W/m 6,4 km/h (2 Bft) 97,87 %
20.02.2019 23:28 6,8 C 6,1 C 5,0 C 84 % 1022,7 hPa 0,0 l/m 0 min 0 min 0 W/m 6,4 km/h (2 Bft) 97,83 %
20.02.2019 23:26 6,8 C 6,1 C 5,0 C 84 % 1022,6 hPa 0,0 l/m 0 min 0 min 0 W/m 6,4 km/h (2 Bft) 97,87 %
20.02.2019 23:24 6,9 C 6,1 C 5,6 C 84 % 1022,7 hPa 0,0 l/m 0 min 0 min 0 W/m 6,4 km/h (2 Bft) 97,87 %
20.02.2019 23:22 6,9 C 6,1 C 5,6 C 84 % 1022,6 hPa 0,0 l/m 0 min 0 min 0 W/m 6,4 km/h (2 Bft) 95,74 %
20.02.2019 23:20 6,9 C 6,1 C 5,6 C 83 % 1022,7 hPa 0,0 l/m 0 min 0 min 0 W/m 6,4 km/h (2 Bft) 97,87 %
20.02.2019 23:18 6,9 C 6,1 C 5,6 C 83 % 1022,7 hPa 0,0 l/m 0 min 0 min 0 W/m 12,9 km/h (3 Bft) 100,00 %
20.02.2019 23:16 6,9 C 6,1 C 5,6 C 83 % 1022,7 hPa 0,0 l/m 0 min 0 min 0 W/m 9,7 km/h (2 Bft) 97,83 %
20.02.2019 23:14 6,9 C 6,1 C 5,6 C 83 % 1022,6 hPa 0,0 l/m 0 min 0 min 0 W/m 0,0 km/h (0 Bft) 97,87 %
20.02.2019 23:12 6,9 C 6,1 C 5,6 C 83 % 1022,7 hPa 0,0 l/m 0 min 0 min 0 W/m 0,0 km/h (0 Bft) 97,87 %
20.02.2019 23:10 6,9 C 6,1 C 5,6 C 83 % 1022,7 hPa 0,0 l/m 0 min 0 min 0 W/m 6,4 km/h (2 Bft) 97,87 %
20.02.2019 23:08 7,0 C 6,1 C 5,6 C 83 % 1022,7 hPa 0,0 l/m 0 min 0 min 0 W/m 6,4 km/h (2 Bft) 100,00 %
20.02.2019 23:06 7,0 C 6,1 C 5,6 C 83 % 1022,7 hPa 0,0 l/m 0 min 0 min 0 W/m 9,7 km/h (2 Bft) 97,87 %
20.02.2019 23:04 7,0 C 6,1 C 5,6 C 83 % 1022,7 hPa 0,0 l/m 0 min 0 min 0 W/m 9,7 km/h (2 Bft) 100,00 %
20.02.2019 23:02 7,0 C 6,1 C 5,6 C 83 % 1022,6 hPa 0,0 l/m 0 min 0 min 0 W/m 6,4 km/h (2 Bft) 97,87 %
20.02.2019 23:00 7,0 C 6,1 C 5,6 C 83 % 1022,7 hPa 0,0 l/m 0 min 0 min 0 W/m 6,4 km/h (2 Bft) 97,87 %
20.02.2019 22:58 7,1 C 6,1 C 5,0 C 83 % 1022,7 hPa 0,0 l/m 0 min 0 min 0 W/m 9,7 km/h (2 Bft) 100,00 %
20.02.2019 22:56 7,1 C 6,1 C 5,6 C 83 % 1022,7 hPa 0,0 l/m 0 min 0 min 0 W/m 6,4 km/h (2 Bft) 97,87 %
20.02.2019 22:54 7,1 C 6,1 C 5,6 C 83 % 1022,7 hPa 0,0 l/m 0 min 0 min 0 W/m 9,7 km/h (2 Bft) 100,00 %
20.02.2019 22:52 7,1 C 6,1 C 5,0 C 83 % 1022,7 hPa 0,0 l/m 0 min 0 min 0 W/m 3,2 km/h (1 Bft) 100,00 %
20.02.2019 22:50 7,1 C 6,1 C 5,0 C 83 % 1022,7 hPa 0,0 l/m 0 min 0 min 0 W/m 9,7 km/h (2 Bft) 97,87 %
20.02.2019 22:48 7,2 C 6,1 C 5,0 C 82 % 1022,7 hPa 0,0 l/m 0 min 0 min 0 W/m 6,4 km/h (2 Bft) 100,00 %
20.02.2019 22:46 7,2 C 6,1 C 5,0 C 82 % 1022,6 hPa 0,0 l/m 0 min 0 min 0 W/m 6,4 km/h (2 Bft) 100,00 %
20.02.2019 22:44 7,2 C 6,1 C 5,0 C 82 % 1022,6 hPa 0,0 l/m 0 min 0 min 0 W/m 6,4 km/h (2 Bft) 100,00 %
20.02.2019 22:42 7,2 C 6,1 C 5,0 C 82 % 1022,5 hPa 0,0 l/m 0 min 0 min 0 W/m 3,2 km/h (1 Bft) 100,00 %
20.02.2019 22:40 7,2 C 6,1 C 5,6 C 82 % 1022,5 hPa 0,0 l/m 0 min 0 min 0 W/m 6,4 km/h (2 Bft) 97,87 %
20.02.2019 22:38 7,2 C 6,1 C 5,6 C 82 % 1022,5 hPa 0,0 l/m 0 min 0 min 0 W/m 6,4 km/h (2 Bft) 100,00 %
20.02.2019 22:36 7,3 C 6,1 C 5,6 C 82 % 1022,5 hPa 0,0 l/m 0 min 0 min 0 W/m 3,2 km/h (1 Bft) 100,00 %
20.02.2019 22:34 7,3 C 6,1 C 5,6 C 82 % 1022,4 hPa 0,0 l/m 0 min 0 min 0 W/m 6,4 km/h (2 Bft) 100,00 %
20.02.2019 22:32 7,3 C 6,1 C 5,6 C 82 % 1022,5 hPa 0,0 l/m 0 min 0 min 0 W/m 9,7 km/h (2 Bft) 100,00 %
20.02.2019 22:30 7,3 C 6,1 C 5,6 C 82 % 1022,5 hPa 0,0 l/m 0 min 0 min 0 W/m 3,2 km/h (1 Bft) 97,83 %
20.02.2019 22:28 7,3 C 6,7 C 5,6 C 82 % 1022,5 hPa 0,0 l/m 0 min 0 min 0 W/m 6,4 km/h (2 Bft) 97,87 %
20.02.2019 22:26 7,4 C 6,7 C 5,6 C 82 % 1022,5 hPa 0,0 l/m 0 min 0 min 0 W/m 9,7 km/h (2 Bft) 95,74 %
20.02.2019 22:24 7,4 C 6,7 C 5,6 C 82 % 1022,5 hPa 0,0 l/m 0 min 0 min 0 W/m 6,4 km/h (2 Bft) 97,87 %
20.02.2019 22:22 7,4 C 6,7 C 5,6 C 82 % 1022,4 hPa 0,0 l/m 0 min 0 min 0 W/m 3,2 km/h (1 Bft) 95,74 %
20.02.2019 22:20 7,4 C 6,7 C 5,6 C 82 % 1022,5 hPa 0,0 l/m 0 min 0 min 0 W/m 6,4 km/h (2 Bft) 97,87 %
20.02.2019 22:18 7,5 C 6,7 C 5,6 C 82 % 1022,5 hPa 0,0 l/m 0 min 0 min 0 W/m 6,4 km/h (2 Bft) 97,83 %
20.02.2019 22:16 7,5 C 6,7 C 5,6 C 81 % 1022,5 hPa 0,0 l/m 0 min 0 min 0 W/m 6,4 km/h (2 Bft) 97,87 %
20.02.2019 22:14 7,5 C 6,7 C 5,6 C 81 % 1022,4 hPa 0,0 l/m 0 min 0 min 0 W/m 6,4 km/h (2 Bft) 97,87 %
20.02.2019 22:12 7,5 C 6,7 C 5,6 C 81 % 1022,4 hPa 0,0 l/m 0 min 0 min 0 W/m 9,7 km/h (2 Bft) 93,62 %
20.02.2019 22:10 7,6 C 6,7 C 5,6 C 81 % 1022,4 hPa 0,0 l/m 0 min 0 min 0 W/m 6,4 km/h (2 Bft) 97,87 %
20.02.2019 22:08 7,6 C 6,7 C 6,1 C 81 % 1022,4 hPa 0,0 l/m 0 min 0 min 0 W/m 6,4 km/h (2 Bft) 97,87 %
20.02.2019 22:06 7,6 C 6,7 C 6,1 C 81 % 1022,4 hPa 0,0 l/m 0 min 0 min 0 W/m 6,4 km/h (2 Bft) 97,83 %
20.02.2019 22:04 7,6 C 6,7 C 6,1 C 81 % 1022,4 hPa 0,0 l/m 0 min 0 min 0 W/m 6,4 km/h (2 Bft) 97,87 %
20.02.2019 22:02 7,7 C 6,7 C 6,1 C 81 % 1022,4 hPa 0,0 l/m 0 min 0 min 0 W/m 12,9 km/h (3 Bft) 97,87 %
20.02.2019 22:00 7,7 C 6,7 C 6,1 C 81 % 1022,4 hPa 0,0 l/m 0 min 0 min 0 W/m 9,7 km/h (2 Bft) 97,87 %
20.02.2019 21:58 7,7 C 6,7 C 6,1 C 81 % 1022,4 hPa 0,0 l/m 0 min 0 min 0 W/m 6,4 km/h (2 Bft) 97,87 %
20.02.2019 21:56 7,7 C 6,7 C 6,1 C 81 % 1022,4 hPa 0,0 l/m 0 min 0 min 0 W/m 6,4 km/h (2 Bft) 97,87 %
20.02.2019 21:54 7,8 C 6,7 C 6,1 C 81 % 1022,4 hPa 0,0 l/m 0 min 0 min 0 W/m 9,7 km/h (2 Bft) 97,83 %
20.02.2019 21:52 7,8 C 6,7 C 6,1 C 81 % 1022,4 hPa 0,0 l/m 0 min 0 min 0 W/m 9,7 km/h (2 Bft) 95,74 %
20.02.2019 21:50 7,8 C 6,7 C 6,1 C 81 % 1022,4 hPa 0,0 l/m 0 min 0 min 0 W/m 6,4 km/h (2 Bft) 97,87 %
20.02.2019 21:48 7,9 C 6,7 C 6,1 C 81 % 1022,4 hPa 0,0 l/m 0 min 0 min 0 W/m 9,7 km/h (2 Bft) 95,74 %
20.02.2019 21:46 7,9 C 6,7 C 6,1 C 80 % 1022,4 hPa 0,0 l/m 0 min 0 min 0 W/m 6,4 km/h (2 Bft) 97,87 %
20.02.2019 21:44 7,9 C 6,7 C 6,1 C 80 % 1022,4 hPa 0,0 l/m 0 min 0 min 0 W/m 6,4 km/h (2 Bft) 93,62 %
20.02.2019 21:42 7,9 C 6,7 C 6,1 C 80 % 1022,4 hPa 0,0 l/m 0 min 0 min 0 W/m 6,4 km/h (2 Bft) 95,65 %
20.02.2019 21:40 8,0 C 6,7 C 6,1 C 80 % 1022,4 hPa 0,0 l/m 0 min 0 min 0 W/m 6,4 km/h (2 Bft) 93,62 %
20.02.2019 21:38 8,1 C 6,7 C 6,1 C 80 % 1022,3 hPa 0,0 l/m 0 min 0 min 0 W/m 0,0 km/h (0 Bft) 95,74 %
20.02.2019 21:36 8,1 C 6,7 C 6,1 C 80 % 1022,3 hPa 0,0 l/m 0 min 0 min 0 W/m 0,0 km/h (0 Bft) 97,87 %
20.02.2019 21:34 8,1 C 6,7 C 6,1 C 80 % 1022,3 hPa 0,0 l/m 0 min 0 min 0 W/m 0,0 km/h (0 Bft) 95,74 %
20.02.2019 21:32 8,1 C 7,2 C 6,1 C 80 % 1022,2 hPa 0,0 l/m 0 min 0 min 0 W/m 0,0 km/h (0 Bft) 93,62 %
20.02.2019 21:30 8,2 C 7,2 C 6,1 C 80 % 1022,3 hPa 0,0 l/m 0 min 0 min 0 W/m 0,0 km/h (0 Bft) 93,48 %
20.02.2019 21:28 8,2 C 7,2 C 6,1 C 80 % 1022,2 hPa 0,0 l/m 0 min 0 min 0 W/m 0,0 km/h (0 Bft) 89,36 %
20.02.2019 21:26 8,2 C 7,2 C 6,1 C 80 % 1022,2 hPa 0,0 l/m 0 min 0 min 0 W/m 0,0 km/h (0 Bft) 91,49 %
20.02.2019 21:24 8,2 C 7,2 C 6,1 C 79 % 1022,2 hPa 0,0 l/m 0 min 0 min 0 W/m 0,0 km/h (0 Bft) 91,49 %
20.02.2019 21:22 8,2 C 7,2 C 6,1 C 79 % 1022,2 hPa 0,0 l/m 0 min 0 min 0 W/m 6,4 km/h (2 Bft) 95,74 %
20.02.2019 21:20 8,3 C 7,2 C 6,1 C 79 % 1022,2 hPa 0,0 l/m 0 min 0 min 0 W/m 6,4 km/h (2 Bft) 91,30 %
20.02.2019 21:18 8,3 C 7,2 C 6,1 C 79 % 1022,2 hPa 0,0 l/m 0 min 0 min 0 W/m 6,4 km/h (2 Bft) 95,74 %
20.02.2019 21:16 8,3 C 7,2 C 6,1 C 79 % 1022,1 hPa 0,0 l/m 0 min 0 min 0 W/m 3,2 km/h (1 Bft) 95,74 %
20.02.2019 21:14 8,3 C 7,2 C 6,7 C 79 % 1022,2 hPa 0,0 l/m 0 min 0 min 0 W/m 6,4 km/h (2 Bft) 95,74 %
20.02.2019 21:12 8,3 C 7,2 C 6,1 C 79 % 1022,2 hPa 0,0 l/m 0 min 0 min 0 W/m 9,7 km/h (2 Bft) 93,62 %
20.02.2019 21:10 8,4 C 7,2 C 6,7 C 79 % 1022,2 hPa 0,0 l/m 0 min 0 min 0 W/m 6,4 km/h (2 Bft) 95,74 %
20.02.2019 21:08 8,4 C 7,2 C 6,7 C 79 % 1022,1 hPa 0,0 l/m 0 min 0 min 0 W/m 9,7 km/h (2 Bft) 93,48 %
20.02.2019 21:06 8,4 C 7,2 C 6,7 C 79 % 1022,1 hPa 0,0 l/m 0 min 0 min 0 W/m 9,7 km/h (2 Bft) 95,74 %
20.02.2019 21:04 8,4 C 7,8 C 6,7 C 79 % 1022,2 hPa 0,0 l/m 0 min 0 min 0 W/m 6,4 km/h (2 Bft) 95,74 %
20.02.2019 21:02 8,4 C 7,8 C 6,7 C 79 % 1022,2 hPa 0,0 l/m 0 min 0 min 0 W/m 6,4 km/h (2 Bft) 95,74 %
20.02.2019 21:00 8,5 C 7,8 C 6,7 C 79 % 1022,2 hPa 0,0 l/m 0 min 0 min 0 W/m 6,4 km/h (2 Bft) 100,00 %
20.02.2019 20:58 8,6 C 7,8 C 6,7 C 79 % 1022,2 hPa 0,0 l/m 0 min 0 min 0 W/m 6,4 km/h (2 Bft) 91,49 %
20.02.2019 20:56 8,6 C 7,8 C 6,7 C 78 % 1022,2 hPa 0,0 l/m 0 min 0 min 0 W/m 9,7 km/h (2 Bft) 93,48 %
20.02.2019 20:54 8,6 C 7,2 C 6,7 C 78 % 1022,2 hPa 0,0 l/m 0 min 0 min 0 W/m 6,4 km/h (2 Bft) 95,74 %
20.02.2019 20:52 8,7 C 7,2 C 6,1 C 78 % 1022,2 hPa 0,0 l/m 0 min 0 min 0 W/m 9,7 km/h (2 Bft) 97,87 %
20.02.2019 20:50 8,7 C 7,2 C 6,1 C 78 % 1022,1 hPa 0,0 l/m 0 min 0 min 0 W/m 3,2 km/h (1 Bft) 95,74 %
20.02.2019 20:48 8,7 C 7,8 C 6,1 C 78 % 1022,1 hPa 0,0 l/m 0 min 0 min 0 W/m 6,4 km/h (2 Bft) 97,87 %
20.02.2019 20:46 8,7 C 7,8 C 6,1 C 78 % 1022,1 hPa 0,0 l/m 0 min 0 min 0 W/m 6,4 km/h (2 Bft) 97,87 %
20.02.2019 20:44 8,7 C 7,8 C 6,1 C 78 % 1022,2 hPa 0,0 l/m 0 min 0 min 0 W/m 6,4 km/h (2 Bft) 98,31 %
20.02.2019 20:42 8,8 C 7,8 C 5,6 C 78 % 1022,2 hPa 0,0 l/m 0 min 0 min 0 W/m 6,4 km/h (2 Bft) 97,14 %
20.02.2019 20:40 8,8 C 7,8 C 5,6 C 78 % 1022,2 hPa 0,0 l/m 0 min 0 min 0 W/m 3,2 km/h (1 Bft) 97,87 %
20.02.2019 20:38 8,8 C 7,8 C 6,1 C 78 % 1022,2 hPa 0,0 l/m 0 min 0 min 0 W/m 6,4 km/h (2 Bft) 97,87 %
20.02.2019 20:36 8,9 C 7,8 C 6,1 C 78 % 1022,2 hPa 0,0 l/m 0 min 0 min 0 W/m 6,4 km/h (2 Bft) 100,00 %
20.02.2019 20:34 8,9 C 7,8 C 6,1 C 78 % 1022,2 hPa 0,0 l/m 0 min 0 min 0 W/m 0,0 km/h (0 Bft) 100,00 %
20.02.2019 20:32 8,9 C 7,8 C 6,1 C 77 % 1022,1 hPa 0,0 l/m 0 min 0 min 0 W/m 0,0 km/h (0 Bft) 100,00 %
20.02.2019 20:30 8,9 C 7,8 C 6,7 C 78 % 1022,2 hPa 0,0 l/m 0 min 0 min 0 W/m 0,0 km/h (0 Bft) 97,87 %
20.02.2019 20:28 9,0 C 7,8 C 6,7 C 78 % 1022,1 hPa 0,0 l/m 0 min 0 min 0 W/m 0,0 km/h (0 Bft) 100,00 %
20.02.2019 20:26 9,0 C 7,8 C 6,7 C 78 % 1022,1 hPa 0,0 l/m 0 min 0 min 0 W/m 0,0 km/h (0 Bft) 100,00 %
20.02.2019 20:24 9,0 C 7,8 C 6,7 C 78 % 1022,1 hPa 0,0 l/m 0 min 0 min 0 W/m 0,0 km/h (0 Bft) 100,00 %
20.02.2019 20:22 9,1 C 7,8 C 6,7 C 78 % 1022,1 hPa 0,0 l/m 0 min 0 min 0 W/m 0,0 km/h (0 Bft) 100,00 %
20.02.2019 20:20 9,1 C 8,3 C 7,2 C 77 % 1022,1 hPa 0,0 l/m 0 min 0 min 0 W/m 0,0 km/h (0 Bft) 100,00 %
20.02.2019 20:18 9,1 C 8,3 C 6,7 C 77 % 1022,1 hPa 0,0 l/m 0 min 0 min 0 W/m 0,0 km/h (0 Bft) 100,00 %
20.02.2019 20:16 9,1 C 8,3 C 6,7 C 77 % 1022,1 hPa 0,0 l/m 0 min 0 min 0 W/m 0,0 km/h (0 Bft) 100,00 %
20.02.2019 20:14 9,1 C 8,3 C 6,7 C 77 % 1022,1 hPa 0,0 l/m 0 min 0 min 0 W/m 0,0 km/h (0 Bft) 100,00 %
20.02.2019 20:12 9,1 C 8,3 C 7,2 C 77 % 1022,1 hPa 0,0 l/m 0 min 0 min 0 W/m 0,0 km/h (0 Bft) 97,87 %
20.02.2019 20:10 9,1 C 8,3 C 7,2 C 77 % 1022,1 hPa 0,0 l/m 0 min 0 min 0 W/m 0,0 km/h (0 Bft) 100,00 %
20.02.2019 20:08 9,2 C 8,3 C 6,7 C 77 % 1022,0 hPa 0,0 l/m 0 min 0 min 0 W/m 0,0 km/h (0 Bft) 100,00 %
20.02.2019 20:06 9,2 C 8,3 C 7,2 C 77 % 1022,0 hPa 0,0 l/m 0 min 0 min 0 W/m 0,0 km/h (0 Bft) 100,00 %
20.02.2019 20:04 9,2 C 8,3 C 7,2 C 77 % 1022,0 hPa 0,0 l/m 0 min 0 min 0 W/m 0,0 km/h (0 Bft) 100,00 %
20.02.2019 20:02 9,2 C 8,3 C 7,2 C 77 % 1022,0 hPa 0,0 l/m 0 min 0 min 0 W/m 0,0 km/h (0 Bft) 97,87 %
20.02.2019 20:00 9,2 C 8,3 C 7,2 C 77 % 1022,0 hPa 0,0 l/m 0 min 0 min 0 W/m 3,2 km/h (1 Bft) 97,87 %
20.02.2019 19:58 9,2 C 8,3 C 7,2 C 77 % 1022,0 hPa 0,0 l/m 0 min 0 min 0 W/m 3,2 km/h (1 Bft) 100,00 %
20.02.2019 19:56 9,3 C 8,3 C 7,2 C 77 % 1022,0 hPa 0,0 l/m 0 min 0 min 0 W/m 6,4 km/h (2 Bft) 97,87 %
20.02.2019 19:54 9,3 C 8,3 C 6,7 C 77 % 1022,0 hPa 0,0 l/m 0 min 0 min 0 W/m 6,4 km/h (2 Bft) 100,00 %
20.02.2019 19:52 9,3 C 8,3 C 6,7 C 77 % 1022,0 hPa 0,0 l/m 0 min 0 min 0 W/m 3,2 km/h (1 Bft) 100,00 %
20.02.2019 19:50 9,3 C 8,3 C 6,7 C 77 % 1021,9 hPa 0,0 l/m 0 min 0 min 0 W/m 6,4 km/h (2 Bft) 100,00 %
20.02.2019 19:48 9,3 C 8,3 C 6,7 C 76 % 1021,9 hPa 0,0 l/m 0 min 0 min 0 W/m 6,4 km/h (2 Bft) 100,00 %
20.02.2019 19:46 9,4 C 8,3 C 6,7 C 76 % 1021,9 hPa 0,0 l/m 0 min 0 min 0 W/m 3,2 km/h (1 Bft) 100,00 %
20.02.2019 19:44 9,4 C 8,3 C 6,7 C 76 % 1021,9 hPa 0,0 l/m 0 min 0 min 0 W/m 0,0 km/h (0 Bft) 100,00 %
20.02.2019 19:42 9,4 C 8,3 C 6,7 C 76 % 1021,9 hPa 0,0 l/m 0 min 0 min 0 W/m 0,0 km/h (0 Bft) 97,87 %
20.02.2019 19:40 9,4 C 8,3 C 6,7 C 76 % 1021,9 hPa 0,0 l/m 0 min 0 min 0 W/m 3,2 km/h (1 Bft) 100,00 %
20.02.2019 19:38 9,5 C 8,3 C 7,2 C 76 % 1021,9 hPa 0,0 l/m 0 min 0 min 0 W/m 6,4 km/h (2 Bft) 100,00 %
20.02.2019 19:36 9,5 C 8,3 C 6,7 C 76 % 1021,9 hPa 0,0 l/m 0 min 0 min 0 W/m 3,2 km/h (1 Bft) 97,87 %
20.02.2019 19:34 9,5 C 8,3 C 7,2 C 76 % 1021,8 hPa 0,0 l/m 0 min 0 min 0 W/m 3,2 km/h (1 Bft) 97,83 %
20.02.2019 19:32 9,5 C 8,3 C 7,2 C 76 % 1021,8 hPa 0,0 l/m 0 min 0 min 0 W/m 3,2 km/h (1 Bft) 100,00 %
20.02.2019 19:30 9,6 C 8,3 C 7,2 C 76 % 1021,8 hPa 0,0 l/m 0 min 0 min 0 W/m 6,4 km/h (2 Bft) 95,74 %
20.02.2019 19:28 9,6 C 8,3 C 7,2 C 75 % 1021,8 hPa 0,0 l/m 0 min 0 min 0 W/m 6,4 km/h (2 Bft) 97,87 %
20.02.2019 19:26 9,6 C 8,3 C 7,2 C 75 % 1021,8 hPa 0,0 l/m 0 min 0 min 0 W/m 3,2 km/h (1 Bft) 97,87 %
20.02.2019 19:24 9,7 C 8,3 C 7,2 C 75 % 1021,8 hPa 0,0 l/m 0 min 0 min 0 W/m 3,2 km/h (1 Bft) 97,87 %
20.02.2019 19:22 9,7 C 8,9 C 7,8 C 75 % 1021,8 hPa 0,0 l/m 0 min 0 min 0 W/m 9,7 km/h (2 Bft) 97,83 %
20.02.2019 19:20 9,7 C 8,9 C 7,2 C 75 % 1021,9 hPa 0,0 l/m 0 min 0 min 0 W/m 6,4 km/h (2 Bft) 97,87 %
20.02.2019 19:18 9,7 C 8,9 C 7,2 C 75 % 1021,8 hPa 0,0 l/m 0 min 0 min 0 W/m 6,4 km/h (2 Bft) 95,74 %
20.02.2019 19:16 9,7 C 8,9 C 7,2 C 75 % 1021,7 hPa 0,0 l/m 0 min 0 min 0 W/m 3,2 km/h (1 Bft) 97,87 %
20.02.2019 19:14 9,8 C 8,9 C 6,7 C 75 % 1021,8 hPa 0,0 l/m 0 min 0 min 0 W/m 3,2 km/h (1 Bft) 95,74 %
20.02.2019 19:12 9,8 C 8,9 C 7,2 C 75 % 1021,8 hPa 0,0 l/m 0 min 0 min 0 W/m 6,4 km/h (2 Bft) 97,87 %
20.02.2019 19:10 9,8 C 8,9 C 7,2 C 75 % 1021,8 hPa 0,0 l/m 0 min 0 min 0 W/m 3,2 km/h (1 Bft) 97,83 %
20.02.2019 19:08 9,8 C 8,9 C 7,2 C 74 % 1021,8 hPa 0,0 l/m 0 min 0 min 0 W/m 6,4 km/h (2 Bft) 97,87 %
20.02.2019 19:06 9,9 C 8,9 C 7,2 C 74 % 1021,8 hPa 0,0 l/m 0 min 0 min 0 W/m 6,4 km/h (2 Bft) 97,87 %
20.02.2019 19:04 9,9 C 8,9 C 7,2 C 74 % 1021,8 hPa 0,0 l/m 0 min 0 min 0 W/m 6,4 km/h (2 Bft) 97,87 %
20.02.2019 19:02 9,9 C 8,9 C 6,7 C 74 % 1021,8 hPa 0,0 l/m 0 min 0 min 0 W/m 3,2 km/h (1 Bft) 95,74 %
20.02.2019 19:00 9,9 C 8,9 C 6,7 C 74 % 1021,8 hPa 0,0 l/m 0 min 0 min 0 W/m 3,2 km/h (1 Bft) 97,87 %
20.02.2019 18:58 9,9 C 8,9 C 6,7 C 74 % 1021,7 hPa 0,0 l/m 0 min 0 min 0 W/m 3,2 km/h (1 Bft) 95,65 %
20.02.2019 18:56 10,0 C 8,9 C 6,7 C 74 % 1021,7 hPa 0,0 l/m 0 min 0 min 0 W/m 3,2 km/h (1 Bft) 97,87 %
20.02.2019 18:54 10,0 C 8,9 C 7,2 C 73 % 1021,7 hPa 0,0 l/m 0 min 0 min 0 W/m 3,2 km/h (1 Bft) 97,87 %
20.02.2019 18:52 10,1 C 8,9 C 7,2 C 74 % 1021,7 hPa 0,0 l/m 0 min 0 min 0 W/m 0,0 km/h (0 Bft) 100,00 %
20.02.2019 18:50 10,1 C 8,3 C 7,2 C 73 % 1021,7 hPa 0,0 l/m 0 min 0 min 0 W/m 0,0 km/h (0 Bft) 95,74 %
20.02.2019 18:48 10,1 C 8,9 C 7,2 C 73 % 1021,7 hPa 0,0 l/m 0 min 0 min 0 W/m 0,0 km/h (0 Bft) 100,00 %
20.02.2019 18:46 10,1 C 8,9 C 7,8 C 73 % 1021,7 hPa 0,0 l/m 0 min 0 min 0 W/m 0,0 km/h (0 Bft) 95,74 %
20.02.2019 18:44 10,2 C 8,9 C 7,8 C 73 % 1021,6 hPa 0,0 l/m 0 min 0 min 0 W/m 0,0 km/h (0 Bft) 97,87 %
20.02.2019 18:42 10,2 C 8,9 C 7,8 C 73 % 1021,6 hPa 0,0 l/m 0 min 0 min 0 W/m 3,2 km/h (1 Bft) 97,87 %
20.02.2019 18:40 10,2 C 8,9 C 8,3 C 73 % 1021,6 hPa 0,0 l/m 0 min 0 min 0 W/m 3,2 km/h (1 Bft) 97,87 %
20.02.2019 18:38 10,2 C 8,9 C 8,3 C 73 % 1021,6 hPa 0,0 l/m 0 min 0 min 0 W/m 3,2 km/h (1 Bft) 95,74 %
20.02.2019 18:36 10,2 C 9,4 C 8,3 C 73 % 1021,6 hPa 0,0 l/m 0 min 0 min 0 W/m 6,4 km/h (2 Bft) 100,00 %
20.02.2019 18:34 10,2 C 9,4 C 8,3 C 73 % 1021,6 hPa 0,0 l/m 0 min 0 min 0 W/m 3,2 km/h (1 Bft) 100,00 %
20.02.2019 18:32 10,2 C 9,4 C 8,3 C 73 % 1021,5 hPa 0,0 l/m 0 min 0 min 0 W/m 3,2 km/h (1 Bft) 97,87 %
20.02.2019 18:30 10,3 C 9,4 C 8,9 C 73 % 1021,5 hPa 0,0 l/m 0 min 0 min 0 W/m 6,4 km/h (2 Bft) 100,00 %
20.02.2019 18:28 10,3 C 9,4 C 8,9 C 73 % 1021,5 hPa 0,0 l/m 0 min 0 min 0 W/m 6,4 km/h (2 Bft) 95,74 %
20.02.2019 18:26 10,3 C 9,4 C 8,9 C 73 % 1021,5 hPa 0,0 l/m 0 min 0 min 0 W/m 6,4 km/h (2 Bft) 97,87 %
20.02.2019 18:24 10,3 C 9,4 C 8,9 C 73 % 1021,5 hPa 0,0 l/m 0 min 0 min 0 W/m 6,4 km/h (2 Bft) 97,83 %
20.02.2019 18:22 10,3 C 9,4 C 8,9 C 73 % 1021,4 hPa 0,0 l/m 0 min 0 min 0 W/m 12,9 km/h (3 Bft) 93,62 %
20.02.2019 18:20 10,4 C 9,4 C 8,9 C 73 % 1021,4 hPa 0,0 l/m 0 min 0 min 0 W/m 6,4 km/h (2 Bft) 93,62 %
20.02.2019 18:18 10,4 C 9,4 C 8,9 C 73 % 1021,4 hPa 0,0 l/m 0 min 0 min 0 W/m 6,4 km/h (2 Bft) 95,74 %
20.02.2019 18:16 10,4 C 9,4 C 8,9 C 73 % 1021,4 hPa 0,0 l/m 0 min 0 min 0 W/m 9,7 km/h (2 Bft) 93,62 %
20.02.2019 18:14 10,4 C 9,4 C 8,9 C 73 % 1021,4 hPa 0,0 l/m 0 min 0 min 0 W/m 9,7 km/h (2 Bft) 97,87 %
20.02.2019 18:12 10,4 C 9,4 C 8,9 C 73 % 1021,4 hPa 0,0 l/m 0 min 0 min 0 W/m 9,7 km/h (2 Bft) 95,65 %
20.02.2019 18:10 10,4 C 9,4 C 8,9 C 73 % 1021,4 hPa 0,0 l/m 0 min 0 min 0 W/m 6,4 km/h (2 Bft) 95,74 %
20.02.2019 18:08 10,4 C 9,4 C 8,9 C 73 % 1021,3 hPa 0,0 l/m 0 min 0 min 0 W/m 6,4 km/h (2 Bft) 95,65 %
20.02.2019 18:07 10,4 C 9,4 C 9,4 C 73 % 1021,3 hPa 0,0 l/m 0 min 0 min 3 W/m 9,7 km/h (2 Bft) 95,77 %
20.02.2019 18:04 10,5 C 10,0 C 9,4 C 73 % 1021,2 hPa 0,0 l/m 0 min 0 min 5 W/m 12,9 km/h (3 Bft) 93,62 %
20.02.2019 18:02 10,5 C 10,0 C 9,4 C 73 % 1021,3 hPa 0,0 l/m 0 min 0 min 5 W/m 9,7 km/h (2 Bft) 95,74 %
20.02.2019 18:00 10,5 C 10,0 C 9,4 C 73 % 1021,2 hPa 0,0 l/m 0 min 0 min 5 W/m 9,7 km/h (2 Bft) 95,65 %
20.02.2019 17:58 10,5 C 10,0 C 9,4 C 73 % 1021,2 hPa 0,0 l/m 0 min 0 min 5 W/m 9,7 km/h (2 Bft) 95,74 %
20.02.2019 17:56 10,6 C 10,0 C 9,4 C 73 % 1021,2 hPa 0,0 l/m 0 min 0 min 7 W/m 12,9 km/h (3 Bft) 91,49 %
20.02.2019 17:54 10,6 C 10,0 C 9,4 C 73 % 1021,2 hPa 0,0 l/m 0 min 0 min 8 W/m 9,7 km/h (2 Bft) 93,62 %
20.02.2019 17:52 10,6 C 10,0 C 9,4 C 73 % 1021,2 hPa 0,0 l/m 0 min 0 min 10 W/m 6,4 km/h (2 Bft) 95,74 %
20.02.2019 17:50 10,6 C 10,0 C 9,4 C 73 % 1021,2 hPa 0,0 l/m 0 min 0 min 11 W/m 6,4 km/h (2 Bft) 95,74 %
20.02.2019 17:48 10,7 C 10,0 C 9,4 C 73 % 1021,2 hPa 0,0 l/m 0 min 0 min 11 W/m 6,4 km/h (2 Bft) 95,65 %
20.02.2019 17:46 10,7 C 10,0 C 9,4 C 73 % 1021,2 hPa 0,0 l/m 0 min 0 min 12 W/m 3,2 km/h (1 Bft) 95,74 %
20.02.2019 17:44 10,7 C 10,0 C 9,4 C 73 % 1021,2 hPa 0,0 l/m 0 min 0 min 12 W/m 12,9 km/h (3 Bft) 95,74 %
20.02.2019 17:42 10,7 C 10,0 C 9,4 C 73 % 1021,1 hPa 0,0 l/m 0 min 0 min 14 W/m 6,4 km/h (2 Bft) 95,74 %
20.02.2019 17:40 10,7 C 10,0 C 9,4 C 73 % 1021,1 hPa 0,0 l/m 0 min 0 min 14 W/m 3,2 km/h (1 Bft) 95,74 %
20.02.2019 17:38 10,7 C 10,0 C 9,4 C 73 % 1021,2 hPa 0,0 l/m 0 min 0 min 17 W/m 6,4 km/h (2 Bft) 93,48 %
20.02.2019 17:36 10,8 C 10,0 C 9,4 C 73 % 1021,2 hPa 0,0 l/m 0 min 0 min 18 W/m 6,4 km/h (2 Bft) 97,87 %
20.02.2019 17:34 10,8 C 10,0 C 9,4 C 73 % 1021,1 hPa 0,0 l/m 0 min 0 min 19 W/m 6,4 km/h (2 Bft) 97,87 %
20.02.2019 17:32 10,8 C 10,0 C 9,4 C 72 % 1021,1 hPa 0,0 l/m 0 min 0 min 21 W/m 3,2 km/h (1 Bft) 100,00 %
20.02.2019 17:30 10,8 C 10,0 C 9,4 C 72 % 1021,1 hPa 0,0 l/m 0 min 0 min 21 W/m 3,2 km/h (1 Bft) 97,87 %
20.02.2019 17:28 10,8 C 10,0 C 9,4 C 72 % 1021,1 hPa 0,0 l/m 0 min 0 min 21 W/m 6,4 km/h (2 Bft) 97,87 %
20.02.2019 17:26 10,8 C 10,0 C 9,4 C 72 % 1021,1 hPa 0,0 l/m 0 min 0 min 23 W/m 6,4 km/h (2 Bft) 97,83 %
20.02.2019 17:24 10,9 C 10,0 C 9,4 C 72 % 1021,2 hPa 0,0 l/m 0 min 0 min 27 W/m 3,2 km/h (1 Bft) 97,87 %
20.02.2019 17:22 10,9 C 10,0 C 9,4 C 72 % 1021,2 hPa 0,0 l/m 0 min 0 min 31 W/m 6,4 km/h (2 Bft) 97,87 %
20.02.2019 17:20 10,9 C 10,0 C 9,4 C 72 % 1021,2 hPa 0,0 l/m 0 min 0 min 34 W/m 9,7 km/h (2 Bft) 95,74 %
20.02.2019 17:18 10,9 C 10,0 C 9,4 C 71 % 1021,2 hPa 0,0 l/m 0 min 0 min 37 W/m 9,7 km/h (2 Bft) 97,87 %
20.02.2019 17:16 10,9 C 10,0 C 9,4 C 71 % 1021,2 hPa 0,0 l/m 0 min 0 min 40 W/m 6,4 km/h (2 Bft) 97,87 %
20.02.2019 17:14 11,0 C 10,0 C 9,4 C 71 % 1021,2 hPa 0,0 l/m 0 min 0 min 40 W/m 6,4 km/h (2 Bft) 100,00 %
20.02.2019 17:12 11,0 C 10,0 C 9,4 C 71 % 1021,2 hPa 0,0 l/m 0 min 0 min 40 W/m 6,4 km/h (2 Bft) 100,00 %
20.02.2019 17:10 11,1 C 10,0 C 9,4 C 71 % 1021,2 hPa 0,0 l/m 0 min 0 min 41 W/m 12,9 km/h (3 Bft) 100,00 %
20.02.2019 17:08 11,1 C 10,6 C 9,4 C 71 % 1021,2 hPa 0,0 l/m 0 min 0 min 44 W/m 6,4 km/h (2 Bft) 100,00 %
20.02.2019 17:06 11,1 C 10,6 C 10,0 C 70 % 1021,2 hPa 0,0 l/m 0 min 0 min 46 W/m 6,4 km/h (2 Bft) 100,00 %
20.02.2019 17:04 11,1 C 10,6 C 10,0 C 70 % 1021,2 hPa 0,0 l/m 0 min 0 min 48 W/m 6,4 km/h (2 Bft) 100,00 %
20.02.2019 17:02 11,1 C 10,6 C 10,0 C 70 % 1021,2 hPa 0,0 l/m 0 min 0 min 50 W/m 16,1 km/h (3 Bft) 100,00 %
20.02.2019 17:00 11,2 C 10,6 C 10,0 C 69 % 1021,2 hPa 0,0 l/m 0 min 0 min 54 W/m 16,1 km/h (3 Bft) 97,87 %
20.02.2019 16:58 11,2 C 10,6 C 10,0 C 69 % 1021,2 hPa 0,0 l/m 0 min 0 min 58 W/m 9,7 km/h (2 Bft) 97,87 %
20.02.2019 16:56 11,2 C 10,6 C 10,0 C 70 % 1021,2 hPa 0,0 l/m 0 min 0 min 62 W/m 9,7 km/h (2 Bft) 97,87 %
20.02.2019 16:54 11,2 C 10,6 C 10,0 C 69 % 1021,1 hPa 0,0 l/m 0 min 0 min 62 W/m 6,4 km/h (2 Bft) 95,74 %
20.02.2019 16:52 11,2 C 10,6 C 10,0 C 69 % 1021,1 hPa 0,0 l/m 0 min 0 min 63 W/m 9,7 km/h (2 Bft) 97,87 %
20.02.2019 16:50 11,3 C 10,6 C 10,0 C 69 % 1021,0 hPa 0,0 l/m 0 min 0 min 69 W/m 19,3 km/h (3 Bft) 97,83 %
20.02.2019 16:48 11,3 C 10,6 C 10,0 C 68 % 1021,0 hPa 0,0 l/m 0 min 0 min 75 W/m 19,3 km/h (3 Bft) 97,87 %
20.02.2019 16:46 11,3 C 10,6 C 10,0 C 69 % 1021,0 hPa 0,0 l/m 0 min 0 min 78 W/m 12,9 km/h (3 Bft) 100,00 %
20.02.2019 16:44 11,3 C 11,1 C 10,0 C 68 % 1021,0 hPa 0,0 l/m 0 min 0 min 81 W/m 9,7 km/h (2 Bft) 95,74 %
20.02.2019 16:42 11,4 C 11,1 C 10,0 C 68 % 1021,0 hPa 0,0 l/m 0 min 0 min 84 W/m 16,1 km/h (3 Bft) 97,87 %
20.02.2019 16:40 11,4 C 11,1 C 10,6 C 69 % 1021,0 hPa 0,0 l/m 0 min 0 min 86 W/m 12,9 km/h (3 Bft) 97,83 %
20.02.2019 16:38 11,4 C 11,1 C 10,6 C 68 % 1021,0 hPa 0,0 l/m 0 min 0 min 90 W/m 22,5 km/h (4 Bft) 97,87 %
20.02.2019 16:36 11,5 C 11,1 C 10,6 C 68 % 1021,0 hPa 0,0 l/m 2 min 0 min 94 W/m 16,1 km/h (3 Bft) 97,87 %
20.02.2019 16:34 11,5 C 11,1 C 10,6 C 68 % 1021,0 hPa 0,0 l/m 2 min 0 min 97 W/m 16,1 km/h (3 Bft) 97,87 %
20.02.2019 16:32 11,6 C 11,1 C 10,6 C 68 % 1021,0 hPa 0,0 l/m 0 min 0 min 96 W/m 12,9 km/h (3 Bft) 97,87 %
20.02.2019 16:30 11,6 C 11,1 C 10,6 C 68 % 1021,0 hPa 0,0 l/m 0 min 0 min 93 W/m 12,9 km/h (3 Bft) 93,62 %
20.02.2019 16:28 11,6 C 11,1 C 10,6 C 67 % 1021,0 hPa 0,0 l/m 0 min 0 min 95 W/m 9,7 km/h (2 Bft) 97,83 %
20.02.2019 16:26 11,6 C 11,7 C 10,6 C 67 % 1021,0 hPa 0,0 l/m 0 min 0 min 103 W/m 9,7 km/h (2 Bft) 97,87 %
20.02.2019 16:24 11,6 C 11,7 C 10,6 C 67 % 1021,0 hPa 0,0 l/m 2 min 0 min 114 W/m 16,1 km/h (3 Bft) 97,87 %
20.02.2019 16:22 11,7 C 11,7 C 10,6 C 67 % 1020,9 hPa 0,0 l/m 2 min 0 min 120 W/m 16,1 km/h (3 Bft) 97,87 %
20.02.2019 16:20 11,7 C 11,7 C 10,6 C 67 % 1021,0 hPa 0,0 l/m 2 min 0 min 126 W/m 16,1 km/h (3 Bft) 97,87 %
20.02.2019 16:18 11,7 C 11,7 C 10,6 C 68 % 1020,9 hPa 0,0 l/m 2 min 0 min 136 W/m 22,5 km/h (4 Bft) 97,87 %
20.02.2019 16:16 11,8 C 11,7 C 10,6 C 68 % 1021,0 hPa 0,0 l/m 2 min 0 min 139 W/m 12,9 km/h (3 Bft) 97,83 %
20.02.2019 16:14 11,8 C 11,7 C 10,6 C 68 % 1020,9 hPa 0,0 l/m 2 min 0 min 141 W/m 29,0 km/h (5 Bft) 97,87 %
20.02.2019 16:12 11,8 C 12,2 C 11,1 C 69 % 1020,9 hPa 0,0 l/m 2 min 0 min 169 W/m 22,5 km/h (4 Bft) 97,87 %
20.02.2019 16:10 11,9 C 12,2 C 11,1 C 68 % 1020,9 hPa 0,0 l/m 2 min 0 min 161 W/m 22,5 km/h (4 Bft) 97,87 %
20.02.2019 16:08 11,9 C 12,2 C 11,1 C 69 % 1021,0 hPa 0,0 l/m 2 min 0 min 178 W/m 25,7 km/h (4 Bft) 97,87 %
20.02.2019 16:06 11,9 C 12,2 C 11,1 C 68 % 1020,9 hPa 0,0 l/m 2 min 0 min 159 W/m 12,9 km/h (3 Bft) 97,87 %
20.02.2019 16:04 11,9 C 12,2 C 11,1 C 68 % 1020,9 hPa 0,0 l/m 2 min 0 min 174 W/m 22,5 km/h (4 Bft) 97,83 %
20.02.2019 16:02 11,9 C 12,2 C 11,1 C 68 % 1020,8 hPa 0,0 l/m 2 min 0 min 226 W/m 19,3 km/h (3 Bft) 97,87 %
20.02.2019 16:00 12,0 C 12,2 C 11,1 C 68 % 1020,8 hPa 0,0 l/m 2 min 0 min 211 W/m 16,1 km/h (3 Bft) 95,74 %
20.02.2019 15:58 12,0 C 12,2 C 11,1 C 68 % 1020,8 hPa 0,0 l/m 2 min 0 min 170 W/m 9,7 km/h (2 Bft) 95,74 %
20.02.2019 15:56 12,1 C 12,8 C 11,1 C 68 % 1020,8 hPa 0,0 l/m 2 min 0 min 171 W/m 12,9 km/h (3 Bft) 97,87 %
20.02.2019 15:54 12,1 C 12,8 C 11,1 C 68 % 1020,8 hPa 0,0 l/m 2 min 0 min 171 W/m 12,9 km/h (3 Bft) 97,87 %
20.02.2019 15:52 12,1 C 13,3 C 11,1 C 68 % 1020,8 hPa 0,0 l/m 2 min 0 min 185 W/m 16,1 km/h (3 Bft) 97,83 %
20.02.2019 15:50 12,1 C 13,9 C 11,1 C 68 % 1020,7 hPa 0,0 l/m 2 min 0 min 271 W/m 19,3 km/h (3 Bft) 95,74 %
20.02.2019 15:48 12,1 C 14,4 C 11,1 C 68 % 1020,7 hPa 0,0 l/m 2 min 0 min 325 W/m 16,1 km/h (3 Bft) 100,00 %
20.02.2019 15:46 12,1 C 13,9 C 11,1 C 68 % 1020,7 hPa 0,0 l/m 2 min 0 min 292 W/m 22,5 km/h (4 Bft) 95,74 %
20.02.2019 15:44 12,1 C 15,0 C 11,7 C 68 % 1020,7 hPa 0,0 l/m 2 min 0 min 295 W/m 6,4 km/h (2 Bft) 97,87 %
20.02.2019 15:42 12,1 C 14,4 C 11,1 C 68 % 1020,8 hPa 0,0 l/m 2 min 0 min 291 W/m 19,3 km/h (3 Bft) 97,87 %
20.02.2019 15:40 12,1 C 15,0 C 11,1 C 69 % 1020,8 hPa 0,0 l/m 2 min 0 min 347 W/m 25,7 km/h (4 Bft) 95,65 %
20.02.2019 15:38 12,1 C 14,4 C 11,1 C 69 % 1020,8 hPa 0,0 l/m 2 min 0 min 319 W/m 9,7 km/h (2 Bft) 95,74 %
20.02.2019 15:36 12,1 C 13,3 C 11,1 C 69 % 1020,8 hPa 0,0 l/m 2 min 0 min 252 W/m 16,1 km/h (3 Bft) 97,87 %
20.02.2019 15:34 12,1 C 12,8 C 10,6 C 68 % 1020,8 hPa 0,0 l/m 2 min 0 min 201 W/m 16,1 km/h (3 Bft) 97,87 %
20.02.2019 15:32 12,1 C 12,8 C 11,1 C 68 % 1020,8 hPa 0,0 l/m 2 min 0 min 164 W/m 22,5 km/h (4 Bft) 97,87 %
20.02.2019 15:30 12,1 C 14,4 C 11,1 C 68 % 1020,8 hPa 0,0 l/m 2 min 0 min 274 W/m 22,5 km/h (4 Bft) 97,83 %
20.02.2019 15:28 12,1 C 14,4 C 11,1 C 69 % 1020,8 hPa 0,0 l/m 2 min 0 min 221 W/m 16,1 km/h (3 Bft) 97,87 %
20.02.2019 15:26 12,1 C 15,0 C 11,1 C 68 % 1020,8 hPa 0,0 l/m 2 min 0 min 294 W/m 12,9 km/h (3 Bft) 97,87 %
20.02.2019 15:24 12,1 C 15,0 C 11,1 C 68 % 1020,8 hPa 0,0 l/m 2 min 0 min 327 W/m 9,7 km/h (2 Bft) 97,87 %
20.02.2019 15:22 12,1 C 15,0 C 11,1 C 68 % 1020,9 hPa 0,0 l/m 2 min 0 min 304 W/m 22,5 km/h (4 Bft) 93,62 %
20.02.2019 15:20 12,1 C 15,6 C 11,7 C 69 % 1020,8 hPa 0,0 l/m 2 min 0 min 377 W/m 9,7 km/h (2 Bft) 97,87 %
20.02.2019 15:18 12,0 C 14,4 C 11,1 C 69 % 1020,8 hPa 0,0 l/m 2 min 0 min 371 W/m 19,3 km/h (3 Bft) 97,83 %
20.02.2019 15:16 12,0 C 13,9 C 11,1 C 68 % 1020,8 hPa 0,0 l/m 2 min 0 min 293 W/m 16,1 km/h (3 Bft) 95,74 %
20.02.2019 15:14 12,1 C 12,8 C 11,1 C 69 % 1020,8 hPa 0,0 l/m 2 min 0 min 234 W/m 22,5 km/h (4 Bft) 95,74 %
20.02.2019 15:12 12,1 C 13,3 C 11,1 C 69 % 1020,8 hPa 0,0 l/m 2 min 0 min 215 W/m 12,9 km/h (3 Bft) 95,74 %
20.02.2019 15:10 12,1 C 13,3 C 11,1 C 69 % 1020,9 hPa 0,0 l/m 2 min 0 min 235 W/m 22,5 km/h (4 Bft) 95,74 %
20.02.2019 15:08 12,1 C 13,9 C 11,7 C 69 % 1020,8 hPa 0,0 l/m 2 min 0 min 255 W/m 12,9 km/h (3 Bft) 93,62 %
20.02.2019 15:06 12,1 C 13,9 C 11,7 C 69 % 1020,8 hPa 0,0 l/m 2 min 0 min 305 W/m 19,3 km/h (3 Bft) 95,65 %
20.02.2019 15:04 12,1 C 13,3 C 11,1 C 68 % 1020,9 hPa 0,0 l/m 2 min 0 min 261 W/m 16,1 km/h (3 Bft) 78,26 %
20.02.2019 15:02 12,2 C 13,3 C 11,1 C 69 % 1020,9 hPa 0,0 l/m 2 min 0 min 206 W/m 16,1 km/h (3 Bft) 61,70 %
20.02.2019 15:00 12,2 C 12,8 C 11,1 C 68 % 1021,0 hPa 0,0 l/m 2 min 0 min 211 W/m 12,9 km/h (3 Bft) 95,74 %
20.02.2019 14:58 12,2 C 12,8 C 11,1 C 68 % 1020,9 hPa 0,0 l/m 2 min 0 min 213 W/m 19,3 km/h (3 Bft) 100,00 %
20.02.2019 14:56 12,3 C 12,8 C 11,7 C 69 % 1020,9 hPa 0,0 l/m 2 min 0 min 203 W/m 12,9 km/h (3 Bft) 97,87 %
20.02.2019 14:54 12,3 C 13,3 C 11,7 C 69 % 1020,9 hPa 0,0 l/m 2 min 0 min 223 W/m 19,3 km/h (3 Bft) 97,83 %
20.02.2019 14:52 12,3 C 12,8 C 11,7 C 68 % 1021,0 hPa 0,0 l/m 2 min 0 min 221 W/m 16,1 km/h (3 Bft) 97,87 %
20.02.2019 14:50 12,4 C 13,9 C 11,7 C 68 % 1020,9 hPa 0,0 l/m 2 min 0 min 251 W/m 12,9 km/h (3 Bft) 97,87 %
20.02.2019 14:48 12,4 C 14,4 C 11,7 C 68 % 1021,0 hPa 0,0 l/m 2 min 0 min 336 W/m 12,9 km/h (3 Bft) 97,87 %
20.02.2019 14:46 12,4 C 13,9 C 11,7 C 67 % 1021,0 hPa 0,0 l/m 2 min 0 min 270 W/m 9,7 km/h (2 Bft) 97,87 %
20.02.2019 14:44 12,4 C 12,8 C 11,7 C 66 % 1021,0 hPa 0,0 l/m 2 min 0 min 257 W/m 12,9 km/h (3 Bft) 97,87 %
20.02.2019 14:42 12,5 C 12,8 C 11,7 C 65 % 1021,0 hPa 0,0 l/m 2 min 0 min 229 W/m 19,3 km/h (3 Bft) 97,83 %
20.02.2019 14:40 12,5 C 13,3 C 11,7 C 65 % 1021,0 hPa 0,0 l/m 2 min 0 min 346 W/m 25,7 km/h (4 Bft) 97,87 %
20.02.2019 14:38 12,6 C 14,4 C 12,2 C 66 % 1021,1 hPa 0,0 l/m 2 min 0 min 533 W/m 22,5 km/h (4 Bft) 97,87 %
20.02.2019 14:36 12,5 C 15,0 C 12,2 C 67 % 1021,0 hPa 0,0 l/m 2 min 0 min 533 W/m 25,7 km/h (4 Bft) 97,87 %
20.02.2019 14:34 12,4 C 16,7 C 12,8 C 67 % 1020,9 hPa 0,0 l/m 2 min 0 min 547 W/m 35,4 km/h (5 Bft) 97,87 %
20.02.2019 14:32 12,4 C 17,2 C 12,8 C 69 % 1021,0 hPa 0,0 l/m 2 min 0 min 502 W/m 16,1 km/h (3 Bft) 97,87 %
20.02.2019 14:30 12,3 C 17,8 C 12,2 C 69 % 1021,0 hPa 0,0 l/m 2 min 0 min 515 W/m 6,4 km/h (2 Bft) 100,00 %
20.02.2019 14:28 12,3 C 16,1 C 11,7 C 68 % 1021,1 hPa 0,0 l/m 2 min 0 min 381 W/m 12,9 km/h (3 Bft) 100,00 %
20.02.2019 14:26 12,2 C 15,0 C 11,7 C 68 % 1021,1 hPa 0,0 l/m 2 min 0 min 236 W/m 9,7 km/h (2 Bft) 100,00 %
20.02.2019 14:24 12,2 C 15,0 C 11,7 C 68 % 1021,0 hPa 0,0 l/m 2 min 0 min 223 W/m 16,1 km/h (3 Bft) 100,00 %
20.02.2019 14:22 12,2 C 15,0 C 11,7 C 69 % 1021,1 hPa 0,0 l/m 2 min 0 min 417 W/m 16,1 km/h (3 Bft) 100,00 %
20.02.2019 14:20 12,2 C 15,0 C 11,7 C 69 % 1021,1 hPa 0,0 l/m 2 min 0 min 239 W/m 9,7 km/h (2 Bft) 100,00 %
20.02.2019 14:18 12,2 C 13,9 C 11,7 C 69 % 1021,1 hPa 0,0 l/m 2 min 0 min 211 W/m 9,7 km/h (2 Bft) 100,00 %
20.02.2019 14:16 12,2 C 14,4 C 11,7 C 69 % 1021,0 hPa 0,0 l/m 2 min 0 min 386 W/m 12,9 km/h (3 Bft) 100,00 %
20.02.2019 14:14 12,2 C 14,4 C 11,1 C 69 % 1021,0 hPa 0,0 l/m 0 min 0 min 158 W/m 9,7 km/h (2 Bft) 100,00 %
20.02.2019 14:12 12,2 C 13,9 C 11,1 C 69 % 1021,0 hPa 0,0 l/m 0 min 0 min 152 W/m 9,7 km/h (2 Bft) 97,87 %
20.02.2019 14:10 12,2 C 14,4 C 11,7 C 70 % 1021,1 hPa 0,0 l/m 0 min 0 min 189 W/m 9,7 km/h (2 Bft) 97,87 %
20.02.2019 14:08 12,2 C 15,6 C 11,7 C 70 % 1021,1 hPa 0,0 l/m 2 min 0 min 419 W/m 9,7 km/h (2 Bft) 100,00 %
20.02.2019 14:06 12,2 C 16,1 C 11,7 C 70 % 1021,0 hPa 0,0 l/m 2 min 0 min 266 W/m 9,7 km/h (2 Bft) 100,00 %
20.02.2019 14:04 12,2 C 15,6 C 11,7 C 69 % 1021,2 hPa 0,0 l/m 2 min 0 min 431 W/m 16,1 km/h (3 Bft) 97,87 %
20.02.2019 14:02 12,1 C 15,0 C 11,7 C 70 % 1021,1 hPa 0,0 l/m 2 min 0 min 361 W/m 16,1 km/h (3 Bft) 100,00 %
20.02.2019 14:00 12,1 C 14,4 C 11,7 C 69 % 1021,1 hPa 0,0 l/m 2 min 0 min 391 W/m 12,9 km/h (3 Bft) 100,00 %
20.02.2019 13:58 12,2 C 12,8 C 11,1 C 69 % 1021,2 hPa 0,0 l/m 2 min 0 min 241 W/m 16,1 km/h (3 Bft) 100,00 %
20.02.2019 13:56 12,2 C 12,2 C 11,1 C 68 % 1021,2 hPa 0,0 l/m 0 min 0 min 188 W/m 22,5 km/h (4 Bft) 95,65 %
20.02.2019 13:54 12,3 C 12,2 C 11,1 C 69 % 1021,2 hPa 0,0 l/m 0 min 0 min 179 W/m 25,7 km/h (4 Bft) 100,00 %
20.02.2019 13:52 12,3 C 12,8 C 11,7 C 70 % 1021,2 hPa 0,0 l/m 0 min 0 min 191 W/m 12,9 km/h (3 Bft) 100,00 %
20.02.2019 13:50 12,3 C 13,9 C 12,2 C 71 % 1021,3 hPa 0,0 l/m 0 min 0 min 209 W/m 12,9 km/h (3 Bft) 100,00 %
20.02.2019 13:48 12,3 C 15,0 C 12,8 C 71 % 1021,2 hPa 0,0 l/m 2 min 0 min 251 W/m 6,4 km/h (2 Bft) 100,00 %
20.02.2019 13:46 12,2 C 15,6 C 12,8 C 71 % 1021,2 hPa 0,0 l/m 2 min 0 min 288 W/m 6,4 km/h (2 Bft) 100,00 %
20.02.2019 13:44 12,2 C 16,1 C 12,8 C 71 % 1021,1 hPa 0,0 l/m 2 min 0 min 347 W/m 6,4 km/h (2 Bft) 100,00 %
20.02.2019 13:42 12,1 C 16,1 C 12,8 C 71 % 1021,1 hPa 0,0 l/m 2 min 0 min 399 W/m 9,7 km/h (2 Bft) 97,87 %
20.02.2019 13:40 12,1 C 16,1 C 12,2 C 71 % 1021,1 hPa 0,0 l/m 2 min 0 min 275 W/m 9,7 km/h (2 Bft) 100,00 %
20.02.2019 13:38 12,0 C 15,6 C 12,2 C 71 % 1021,0 hPa 0,0 l/m 2 min 0 min 344 W/m 12,9 km/h (3 Bft) 100,00 %
20.02.2019 13:36 11,9 C 16,1 C 12,2 C 70 % 1021,1 hPa 0,0 l/m 2 min 0 min 496 W/m 9,7 km/h (2 Bft) 100,00 %
20.02.2019 13:34 11,9 C 15,0 C 12,2 C 70 % 1021,1 hPa 0,0 l/m 2 min 0 min 496 W/m 12,9 km/h (3 Bft) 100,00 %
20.02.2019 13:32 11,9 C 13,9 C 12,2 C 71 % 1021,1 hPa 0,0 l/m 2 min 0 min 400 W/m 16,1 km/h (3 Bft) 100,00 %
20.02.2019 13:30 11,9 C 14,4 C 12,2 C 71 % 1021,1 hPa 0,0 l/m 2 min 0 min 353 W/m 9,7 km/h (2 Bft) 100,00 %
20.02.2019 13:28 11,9 C 14,4 C 12,2 C 71 % 1021,1 hPa 0,0 l/m 2 min 0 min 270 W/m 6,4 km/h (2 Bft) 100,00 %
20.02.2019 13:26 11,8 C 14,4 C 12,2 C 70 % 1021,0 hPa 0,0 l/m 2 min 0 min 338 W/m 16,1 km/h (3 Bft) 97,87 %
20.02.2019 13:24 11,8 C 13,9 C 11,7 C 71 % 1021,0 hPa 0,0 l/m 2 min 0 min 306 W/m 16,1 km/h (3 Bft) 100,00 %
20.02.2019 13:22 11,8 C 13,3 C 11,7 C 71 % 1021,0 hPa 0,0 l/m 2 min 0 min 262 W/m 9,7 km/h (2 Bft) 100,00 %
20.02.2019 13:20 11,8 C 13,3 C 11,7 C 70 % 1021,1 hPa 0,0 l/m 2 min 0 min 259 W/m 9,7 km/h (2 Bft) 100,00 %
20.02.2019 13:18 11,8 C 13,9 C 12,2 C 71 % 1021,2 hPa 0,0 l/m 2 min 0 min 275 W/m 16,1 km/h (3 Bft) 97,87 %
20.02.2019 13:16 11,8 C 15,6 C 12,8 C 72 % 1021,1 hPa 0,0 l/m 2 min 0 min 324 W/m 16,1 km/h (3 Bft) 97,87 %
20.02.2019 13:14 11,8 C 15,6 C 12,8 C 72 % 1021,1 hPa 0,0 l/m 2 min 0 min 352 W/m 12,9 km/h (3 Bft) 97,87 %
20.02.2019 13:12 11,7 C 15,6 C 12,8 C 72 % 1021,1 hPa 0,0 l/m 2 min 0 min 365 W/m 9,7 km/h (2 Bft) 97,87 %
20.02.2019 13:10 11,7 C 15,6 C 13,3 C 72 % 1021,1 hPa 0,0 l/m 2 min 0 min 427 W/m 9,7 km/h (2 Bft) 95,65 %
20.02.2019 13:08 11,6 C 15,0 C 12,8 C 72 % 1021,3 hPa 0,0 l/m 2 min 0 min 376 W/m 16,1 km/h (3 Bft) 97,87 %
20.02.2019 13:06 11,6 C 14,4 C 12,2 C 72 % 1021,2 hPa 0,0 l/m 2 min 0 min 336 W/m 9,7 km/h (2 Bft) 95,74 %
20.02.2019 13:04 11,5 C 14,4 C 12,2 C 72 % 1021,2 hPa 0,0 l/m 2 min 0 min 332 W/m 12,9 km/h (3 Bft) 93,62 %
20.02.2019 13:02 11,4 C 13,9 C 12,2 C 72 % 1021,2 hPa 0,0 l/m 2 min 0 min 336 W/m 9,7 km/h (2 Bft) 95,74 %
20.02.2019 13:00 11,4 C 13,9 C 12,2 C 72 % 1021,2 hPa 0,0 l/m 2 min 0 min 322 W/m 9,7 km/h (2 Bft) 95,74 %
20.02.2019 12:58 11,4 C 13,9 C 12,2 C 71 % 1021,2 hPa 0,0 l/m 2 min 0 min 315 W/m 6,4 km/h (2 Bft) 95,74 %
20.02.2019 12:56 11,4 C 13,3 C 11,7 C 71 % 1021,2 hPa 0,0 l/m 2 min 0 min 334 W/m 16,1 km/h (3 Bft) 95,65 %
20.02.2019 12:54 11,3 C 13,9 C 12,2 C 71 % 1021,2 hPa 0,0 l/m 2 min 0 min 358 W/m 9,7 km/h (2 Bft) 95,74 %
20.02.2019 12:52 11,3 C 13,3 C 11,7 C 71 % 1021,2 hPa 0,0 l/m 2 min 0 min 355 W/m 22,5 km/h (4 Bft) 95,74 %
20.02.2019 12:50 11,3 C 12,8 C 11,7 C 71 % 1021,2 hPa 0,0 l/m 2 min 0 min 353 W/m 22,5 km/h (4 Bft) 95,74 %
20.02.2019 12:48 11,3 C 13,9 C 12,8 C 72 % 1021,2 hPa 0,0 l/m 2 min 0 min 341 W/m 16,1 km/h (3 Bft) 95,74 %
20.02.2019 12:46 11,3 C 14,4 C 12,8 C 72 % 1021,3 hPa 0,0 l/m 2 min 0 min 363 W/m 9,7 km/h (2 Bft) 91,30 %
20.02.2019 12:44 11,3 C 14,4 C 12,8 C 72 % 1021,3 hPa 0,0 l/m 2 min 0 min 408 W/m 12,9 km/h (3 Bft) 95,74 %
20.02.2019 12:42 11,3 C 13,3 C 11,7 C 71 % 1021,3 hPa 0,0 l/m 2 min 0 min 367 W/m 12,9 km/h (3 Bft) 95,74 %
20.02.2019 12:40 11,3 C 13,3 C 11,7 C 72 % 1021,2 hPa 0,0 l/m 2 min 0 min 342 W/m 16,1 km/h (3 Bft) 93,62 %
20.02.2019 12:38 11,3 C 13,3 C 11,7 C 72 % 1021,2 hPa 0,0 l/m 2 min 0 min 352 W/m 16,1 km/h (3 Bft) 95,74 %
20.02.2019 12:36 11,3 C 13,9 C 11,7 C 72 % 1021,2 hPa 0,0 l/m 2 min 0 min 311 W/m 9,7 km/h (2 Bft) 95,74 %
20.02.2019 12:34 11,3 C 13,3 C 11,7 C 72 % 1021,1 hPa 0,0 l/m 2 min 0 min 317 W/m 12,9 km/h (3 Bft) 95,65 %
20.02.2019 12:32 11,3 C 13,3 C 11,1 C 72 % 1021,2 hPa 0,0 l/m 2 min 0 min 298 W/m 16,1 km/h (3 Bft) 95,74 %
20.02.2019 12:30 11,3 C 13,3 C 11,1 C 73 % 1021,3 hPa 0,0 l/m 2 min 0 min 274 W/m 19,3 km/h (3 Bft) 95,74 %
20.02.2019 12:28 11,3 C 13,3 C 11,1 C 73 % 1021,2 hPa 0,0 l/m 2 min 0 min 363 W/m 25,7 km/h (4 Bft) 95,74 %
20.02.2019 12:26 11,2 C 14,4 C 11,1 C 73 % 1021,2 hPa 0,0 l/m 2 min 0 min 430 W/m 16,1 km/h (3 Bft) 95,74 %
20.02.2019 12:24 11,2 C 15,0 C 11,7 C 74 % 1021,2 hPa 0,0 l/m 2 min 0 min 373 W/m 19,3 km/h (3 Bft) 95,74 %
20.02.2019 12:22 11,1 C 15,0 C 11,7 C 74 % 1021,2 hPa 0,0 l/m 2 min 0 min 408 W/m 16,1 km/h (3 Bft) 95,65 %
20.02.2019 12:20 11,0 C 15,0 C 11,7 C 74 % 1021,2 hPa 0,0 l/m 2 min 0 min 428 W/m 19,3 km/h (3 Bft) 95,74 %
20.02.2019 12:18 10,9 C 15,6 C 11,7 C 75 % 1021,2 hPa 0,0 l/m 2 min 0 min 462 W/m 19,3 km/h (3 Bft) 95,74 %
20.02.2019 12:16 10,9 C 16,1 C 11,1 C 75 % 1021,2 hPa 0,0 l/m 2 min 0 min 459 W/m 16,1 km/h (3 Bft) 95,74 %
20.02.2019 12:14 10,8 C 15,0 C 11,1 C 75 % 1021,2 hPa 0,0 l/m 2 min 0 min 449 W/m 12,9 km/h (3 Bft) 95,74 %
20.02.2019 12:12 10,7 C 14,4 C 10,6 C 75 % 1021,1 hPa 0,0 l/m 2 min 0 min 391 W/m 19,3 km/h (3 Bft) 95,74 %
20.02.2019 12:10 10,7 C 13,9 C 10,6 C 75 % 1021,1 hPa 0,0 l/m 2 min 0 min 399 W/m 12,9 km/h (3 Bft) 93,48 %
20.02.2019 12:08 10,6 C 13,9 C 10,6 C 75 % 1021,1 hPa 0,0 l/m 4 min 0 min 353 W/m 19,3 km/h (3 Bft) 94,68 %
20.02.2019 12:04 10,5 C 13,9 C 10,6 C 76 % 1021,1 hPa 0,0 l/m 2 min 0 min 346 W/m 9,7 km/h (2 Bft) 93,62 %
20.02.2019 12:02 10,4 C 13,9 C 10,0 C 76 % 1021,1 hPa 0,0 l/m 2 min 0 min 505 W/m 22,5 km/h (4 Bft) 95,74 %
20.02.2019 12:00 10,4 C 14,4 C 10,6 C 76 % 1021,1 hPa 0,0 l/m 2 min 0 min 441 W/m 16,1 km/h (3 Bft) 95,74 %
20.02.2019 11:58 10,3 C 13,9 C 10,0 C 76 % 1021,1 hPa 0,0 l/m 2 min 0 min 438 W/m 12,9 km/h (3 Bft) 95,65 %
20.02.2019 11:56 10,3 C 11,7 C 10,0 C 76 % 1021,1 hPa 0,0 l/m 2 min 0 min 277 W/m 22,5 km/h (4 Bft) 93,62 %
20.02.2019 11:54 10,3 C 11,7 C 10,0 C 76 % 1021,1 hPa 0,0 l/m 0 min 0 min 203 W/m 9,7 km/h (2 Bft) 95,74 %
20.02.2019 11:52 10,3 C 11,1 C 10,0 C 76 % 1021,0 hPa 0,0 l/m 0 min 0 min 195 W/m 9,7 km/h (2 Bft) 95,74 %
20.02.2019 11:50 10,3 C 11,1 C 10,0 C 76 % 1021,0 hPa 0,0 l/m 0 min 0 min 177 W/m 12,9 km/h (3 Bft) 95,74 %
20.02.2019 11:48 10,3 C 11,1 C 10,0 C 76 % 1021,0 hPa 0,0 l/m 0 min 0 min 175 W/m 16,1 km/h (3 Bft) 97,83 %
20.02.2019 11:46 10,3 C 11,7 C 10,6 C 77 % 1021,1 hPa 0,0 l/m 0 min 0 min 186 W/m 19,3 km/h (3 Bft) 97,87 %
20.02.2019 11:44 10,3 C 11,7 C 10,6 C 77 % 1021,1 hPa 0,0 l/m 2 min 0 min 227 W/m 12,9 km/h (3 Bft) 97,87 %
20.02.2019 11:42 10,3 C 11,7 C 10,6 C 77 % 1021,1 hPa 0,0 l/m 2 min 0 min 261 W/m 19,3 km/h (3 Bft) 95,74 %
20.02.2019 11:40 10,3 C 11,7 C 10,6 C 77 % 1021,1 hPa 0,0 l/m 2 min 0 min 277 W/m 22,5 km/h (4 Bft) 97,87 %
20.02.2019 11:38 10,3 C 12,2 C 10,6 C 77 % 1021,1 hPa 0,0 l/m 2 min 0 min 262 W/m 16,1 km/h (3 Bft) 93,62 %
20.02.2019 11:36 10,3 C 11,7 C 10,0 C 77 % 1021,1 hPa 0,0 l/m 2 min 0 min 260 W/m 9,7 km/h (2 Bft) 97,83 %
20.02.2019 11:34 10,3 C 11,7 C 10,0 C 76 % 1021,0 hPa 0,0 l/m 2 min 0 min 241 W/m 9,7 km/h (2 Bft) 97,87 %
20.02.2019 11:32 10,3 C 11,1 C 9,4 C 76 % 1021,0 hPa 0,0 l/m 2 min 0 min 244 W/m 25,7 km/h (4 Bft) 97,87 %
20.02.2019 11:30 10,4 C 11,7 C 10,0 C 76 % 1021,0 hPa 0,0 l/m 2 min 0 min 261 W/m 19,3 km/h (3 Bft) 95,74 %
20.02.2019 11:28 10,4 C 11,1 C 9,4 C 76 % 1021,0 hPa 0,0 l/m 2 min 0 min 262 W/m 22,5 km/h (4 Bft) 97,87 %
20.02.2019 11:26 10,5 C 11,7 C 10,0 C 76 % 1021,1 hPa 0,0 l/m 2 min 0 min 263 W/m 19,3 km/h (3 Bft) 95,74 %
20.02.2019 11:24 10,6 C 12,8 C 10,6 C 77 % 1021,1 hPa 0,0 l/m 2 min 0 min 283 W/m 16,1 km/h (3 Bft) 91,30 %
20.02.2019 11:22 10,5 C 13,9 C 10,6 C 78 % 1021,0 hPa 0,0 l/m 2 min 0 min 377 W/m 19,3 km/h (3 Bft) 97,87 %
20.02.2019 11:20 10,4 C 16,1 C 11,1 C 79 % 1020,9 hPa 0,0 l/m 2 min 0 min 433 W/m 12,9 km/h (3 Bft) 97,87 %
20.02.2019 11:18 10,3 C 16,1 C 11,1 C 79 % 1021,0 hPa 0,0 l/m 2 min 0 min 523 W/m 6,4 km/h (2 Bft) 95,74 %
20.02.2019 11:16 10,2 C 16,1 C 11,1 C 79 % 1020,9 hPa 0,0 l/m 2 min 0 min 431 W/m 9,7 km/h (2 Bft) 100,00 %
20.02.2019 11:14 10,1 C 14,4 C 10,6 C 79 % 1020,9 hPa 0,0 l/m 2 min 0 min 566 W/m 16,1 km/h (3 Bft) 95,74 %
20.02.2019 11:12 9,9 C 14,4 C 10,0 C 79 % 1020,9 hPa 0,0 l/m 2 min 0 min 492 W/m 16,1 km/h (3 Bft) 93,48 %
20.02.2019 11:10 9,9 C 13,9 C 10,0 C 80 % 1020,9 hPa 0,0 l/m 2 min 0 min 430 W/m 16,1 km/h (3 Bft) 89,36 %
20.02.2019 11:08 9,7 C 15,6 C 10,0 C 80 % 1020,9 hPa 0,0 l/m 2 min 0 min 396 W/m 12,9 km/h (3 Bft) 91,67 %
20.02.2019 11:06 9,7 C 15,6 C 10,0 C 80 % 1021,0 hPa 0,0 l/m 2 min 0 min 402 W/m 12,9 km/h (3 Bft) 95,74 %
20.02.2019 11:04 9,5 C 15,0 C 9,4 C 80 % 1020,8 hPa 0,0 l/m 2 min 0 min 431 W/m 12,9 km/h (3 Bft) 97,87 %
20.02.2019 11:02 9,4 C 14,4 C 9,4 C 80 % 1020,9 hPa 0,0 l/m 2 min 0 min 442 W/m 12,9 km/h (3 Bft) 95,74 %
20.02.2019 11:00 9,3 C 13,3 C 8,9 C 80 % 1020,9 hPa 0,0 l/m 2 min 0 min 424 W/m 16,1 km/h (3 Bft) 95,65 %
20.02.2019 10:58 9,2 C 12,8 C 8,9 C 81 % 1020,9 hPa 0,0 l/m 2 min 0 min 394 W/m 9,7 km/h (2 Bft) 93,62 %
20.02.2019 10:56 9,1 C 12,2 C 8,3 C 81 % 1020,9 hPa 0,0 l/m 2 min 0 min 332 W/m 12,9 km/h (3 Bft) 97,87 %
20.02.2019 10:54 9,1 C 11,7 C 8,3 C 81 % 1020,9 hPa 0,0 l/m 2 min 0 min 266 W/m 16,1 km/h (3 Bft) 89,36 %
20.02.2019 10:52 8,9 C 11,7 C 8,9 C 82 % 1021,0 hPa 0,0 l/m 2 min 0 min 262 W/m 16,1 km/h (3 Bft) 93,62 %
20.02.2019 10:50 8,8 C 12,2 C 8,9 C 82 % 1021,0 hPa 0,0 l/m 2 min 0 min 273 W/m 25,7 km/h (4 Bft) 93,62 %
20.02.2019 10:48 8,7 C 13,3 C 8,9 C 83 % 1021,0 hPa 0,0 l/m 2 min 0 min 371 W/m 19,3 km/h (3 Bft) 93,48 %
20.02.2019 10:46 8,6 C 14,4 C 9,4 C 83 % 1021,0 hPa 0,0 l/m 2 min 0 min 436 W/m 19,3 km/h (3 Bft) 93,62 %
20.02.2019 10:44 8,4 C 14,4 C 9,4 C 83 % 1021,0 hPa 0,0 l/m 2 min 0 min 444 W/m 9,7 km/h (2 Bft) 95,74 %
20.02.2019 10:42 8,2 C 13,9 C 8,9 C 84 % 1021,0 hPa 0,0 l/m 2 min 0 min 448 W/m 12,9 km/h (3 Bft) 95,74 %
20.02.2019 10:40 8,1 C 12,8 C 8,3 C 84 % 1021,0 hPa 0,0 l/m 2 min 0 min 391 W/m 12,9 km/h (3 Bft) 97,87 %
20.02.2019 10:38 8,0 C 12,2 C 8,3 C 84 % 1020,9 hPa 0,0 l/m 2 min 0 min 323 W/m 9,7 km/h (2 Bft) 97,83 %
20.02.2019 10:36 7,9 C 11,7 C 8,3 C 84 % 1020,9 hPa 0,0 l/m 2 min 0 min 309 W/m 9,7 km/h (2 Bft) 93,62 %
20.02.2019 10:34 7,8 C 10,6 C 8,3 C 84 % 1021,0 hPa 0,0 l/m 2 min 0 min 229 W/m 12,9 km/h (3 Bft) 95,74 %
20.02.2019 10:32 7,7 C 10,6 C 8,3 C 84 % 1021,0 hPa 0,0 l/m 2 min 0 min 217 W/m 12,9 km/h (3 Bft) 95,74 %
20.02.2019 10:30 7,7 C 11,1 C 8,3 C 84 % 1020,9 hPa 0,0 l/m 2 min 0 min 270 W/m 9,7 km/h (2 Bft) 97,87 %
20.02.2019 10:28 7,5 C 10,6 C 8,3 C 85 % 1020,9 hPa 0,0 l/m 2 min 0 min 268 W/m 12,9 km/h (3 Bft) 93,62 %
20.02.2019 10:26 7,4 C 10,6 C 8,3 C 84 % 1020,9 hPa 0,0 l/m 2 min 0 min 240 W/m 9,7 km/h (2 Bft) 97,83 %
20.02.2019 10:24 7,4 C 10,6 C 7,8 C 84 % 1020,9 hPa 0,0 l/m 2 min 0 min 220 W/m 6,4 km/h (2 Bft) 97,87 %
20.02.2019 10:22 7,3 C 9,4 C 7,8 C 84 % 1020,9 hPa 0,0 l/m 2 min 0 min 205 W/m 6,4 km/h (2 Bft) 100,00 %
20.02.2019 10:20 7,3 C 8,9 C 7,2 C 84 % 1021,0 hPa 0,0 l/m 2 min 0 min 181 W/m 12,9 km/h (3 Bft) 100,00 %
20.02.2019 10:18 7,2 C 8,3 C 7,2 C 85 % 1021,0 hPa 0,0 l/m 2 min 0 min 173 W/m 9,7 km/h (2 Bft) 100,00 %
20.02.2019 10:16 7,2 C 8,3 C 7,2 C 85 % 1021,0 hPa 0,0 l/m 0 min 0 min 167 W/m 12,9 km/h (3 Bft) 100,00 %
20.02.2019 10:14 7,1 C 8,3 C 7,2 C 85 % 1021,0 hPa 0,0 l/m 0 min 0 min 160 W/m 6,4 km/h (2 Bft) 100,00 %
20.02.2019 10:12 7,1 C 8,3 C 7,2 C 85 % 1021,0 hPa 0,0 l/m 0 min 0 min 156 W/m 12,9 km/h (3 Bft) 100,00 %
20.02.2019 10:10 7,0 C 7,8 C 7,2 C 85 % 1021,0 hPa 0,0 l/m 0 min 0 min 156 W/m 12,9 km/h (3 Bft) 97,87 %
20.02.2019 10:08 6,9 C 7,8 C 7,2 C 85 % 1021,0 hPa 0,0 l/m 0 min 0 min 147 W/m 9,7 km/h (2 Bft) 100,00 %
20.02.2019 10:06 6,9 C 7,8 C 7,2 C 85 % 1021,0 hPa 0,0 l/m 0 min 0 min 142 W/m 6,4 km/h (2 Bft) 100,00 %
20.02.2019 10:04 6,8 C 7,8 C 7,2 C 85 % 1021,0 hPa 0,0 l/m 0 min 0 min 139 W/m 12,9 km/h (3 Bft) 97,83 %
20.02.2019 10:02 6,8 C 7,8 C 7,2 C 85 % 1021,0 hPa 0,0 l/m 0 min 0 min 140 W/m 12,9 km/h (3 Bft) 97,87 %
20.02.2019 10:00 6,7 C 7,8 C 6,7 C 86 % 1020,9 hPa 0,0 l/m 0 min 0 min 142 W/m 9,7 km/h (2 Bft) 100,00 %
20.02.2019 09:58 6,7 C 7,8 C 6,7 C 86 % 1020,9 hPa 0,0 l/m 0 min 0 min 146 W/m 9,7 km/h (2 Bft) 100,00 %
20.02.2019 09:56 6,6 C 7,8 C 7,2 C 86 % 1020,8 hPa 0,0 l/m 0 min 0 min 150 W/m 12,9 km/h (3 Bft) 97,87 %
20.02.2019 09:54 6,5 C 8,3 C 7,2 C 87 % 1020,8 hPa 0,0 l/m 2 min 0 min 165 W/m 9,7 km/h (2 Bft) 97,87 %
20.02.2019 09:52 6,4 C 8,3 C 7,8 C 87 % 1020,7 hPa 0,0 l/m 2 min 0 min 189 W/m 9,7 km/h (2 Bft) 97,83 %
20.02.2019 09:50 6,4 C 8,3 C 7,2 C 87 % 1020,7 hPa 0,0 l/m 2 min 0 min 186 W/m 12,9 km/h (3 Bft) 97,87 %
20.02.2019 09:48 6,3 C 8,3 C 7,2 C 87 % 1020,7 hPa 0,0 l/m 2 min 0 min 210 W/m 12,9 km/h (3 Bft) 95,74 %
20.02.2019 09:46 6,2 C 7,8 C 7,2 C 88 % 1020,7 hPa 0,0 l/m 2 min 0 min 173 W/m 9,7 km/h (2 Bft) 97,87 %
20.02.2019 09:44 6,1 C 7,8 C 6,7 C 88 % 1020,7 hPa 0,0 l/m 2 min 0 min 171 W/m 16,1 km/h (3 Bft) 97,87 %
20.02.2019 09:42 6,1 C 7,8 C 6,7 C 88 % 1020,7 hPa 0,0 l/m 2 min 0 min 174 W/m 12,9 km/h (3 Bft) 97,87 %
20.02.2019 09:40 5,9 C 7,8 C 6,7 C 88 % 1020,7 hPa 0,0 l/m 2 min 0 min 180 W/m 9,7 km/h (2 Bft) 93,48 %
20.02.2019 09:38 5,9 C 7,8 C 6,7 C 88 % 1020,7 hPa 0,0 l/m 2 min 0 min 178 W/m 12,9 km/h (3 Bft) 97,22 %
20.02.2019 09:36 5,8 C 7,8 C 6,7 C 88 % 1020,7 hPa 0,0 l/m 2 min 0 min 152 W/m 9,7 km/h (2 Bft) 98,28 %
20.02.2019 09:34 5,7 C 7,8 C 6,1 C 88 % 1020,7 hPa 0,0 l/m 2 min 0 min 142 W/m 9,7 km/h (2 Bft) 97,87 %
20.02.2019 09:32 5,7 C 7,8 C 6,1 C 89 % 1020,7 hPa 0,0 l/m 2 min 0 min 142 W/m 6,4 km/h (2 Bft) 97,87 %
20.02.2019 09:30 5,7 C 7,2 C 6,1 C 89 % 1020,6 hPa 0,0 l/m 2 min 0 min 161 W/m 6,4 km/h (2 Bft) 95,74 %
20.02.2019 09:28 5,6 C 7,2 C 5,6 C 88 % 1020,7 hPa 0,0 l/m 2 min 0 min 140 W/m 6,4 km/h (2 Bft) 97,83 %
20.02.2019 09:26 5,5 C 6,7 C 5,6 C 89 % 1020,6 hPa 0,0 l/m 0 min 0 min 118 W/m 12,9 km/h (3 Bft) 95,74 %
20.02.2019 09:24 5,5 C 6,7 C 5,6 C 89 % 1020,6 hPa 0,0 l/m 0 min 0 min 103 W/m 6,4 km/h (2 Bft) 97,87 %
20.02.2019 09:22 5,4 C 6,1 C 5,6 C 89 % 1020,6 hPa 0,0 l/m 0 min 0 min 95 W/m 9,7 km/h (2 Bft) 97,87 %
20.02.2019 09:20 5,4 C 6,1 C 5,6 C 89 % 1020,6 hPa 0,0 l/m 0 min 0 min 91 W/m 9,7 km/h (2 Bft) 95,74 %
20.02.2019 09:18 5,3 C 6,7 C 5,6 C 89 % 1020,6 hPa 0,0 l/m 0 min 0 min 91 W/m 6,4 km/h (2 Bft) 97,87 %
20.02.2019 09:16 5,3 C 6,1 C 5,6 C 89 % 1020,6 hPa 0,0 l/m 0 min 0 min 93 W/m 6,4 km/h (2 Bft) 97,83 %
20.02.2019 09:14 5,3 C 6,1 C 5,6 C 89 % 1020,6 hPa 0,0 l/m 0 min 0 min 96 W/m 6,4 km/h (2 Bft) 97,87 %
20.02.2019 09:12 5,2 C 6,1 C 5,0 C 89 % 1020,6 hPa 0,0 l/m 0 min 0 min 97 W/m 9,7 km/h (2 Bft) 95,74 %
20.02.2019 09:10 5,2 C 6,1 C 5,0 C 89 % 1020,5 hPa 0,0 l/m 0 min 0 min 99 W/m 9,7 km/h (2 Bft) 97,87 %
20.02.2019 09:08 5,2 C 6,1 C 5,0 C 89 % 1020,6 hPa 0,0 l/m 0 min 0 min 102 W/m 9,7 km/h (2 Bft) 100,00 %
20.02.2019 09:06 5,1 C 6,1 C 5,0 C 89 % 1020,5 hPa 0,0 l/m 2 min 0 min 111 W/m 16,1 km/h (3 Bft) 98,31 %
20.02.2019 09:04 5,1 C 6,1 C 5,0 C 89 % 1020,5 hPa 0,0 l/m 2 min 0 min 118 W/m 12,9 km/h (3 Bft) 97,83 %
20.02.2019 09:02 5,0 C 6,1 C 5,0 C 89 % 1020,5 hPa 0,0 l/m 2 min 0 min 121 W/m 9,7 km/h (2 Bft) 100,00 %
20.02.2019 09:00 5,0 C 6,1 C 5,0 C 89 % 1020,5 hPa 0,0 l/m 2 min 0 min 117 W/m 9,7 km/h (2 Bft) 100,00 %
20.02.2019 08:58 5,0 C 5,6 C 5,0 C 89 % 1020,5 hPa 0,0 l/m 2 min 0 min 106 W/m 16,1 km/h (3 Bft) 97,87 %
20.02.2019 08:56 4,9 C 5,6 C 4,4 C 89 % 1020,3 hPa 0,0 l/m 0 min 0 min 88 W/m 12,9 km/h (3 Bft) 100,00 %
20.02.2019 08:54 4,9 C 5,0 C 4,4 C 89 % 1020,3 hPa 0,0 l/m 0 min 0 min 74 W/m 9,7 km/h (2 Bft) 100,00 %
20.02.2019 08:52 4,9 C 5,0 C 4,4 C 89 % 1020,1 hPa 0,0 l/m 0 min 0 min 63 W/m 6,4 km/h (2 Bft) 100,00 %
20.02.2019 08:50 4,9 C 5,0 C 4,4 C 89 % 1020,1 hPa 0,0 l/m 0 min 0 min 55 W/m 9,7 km/h (2 Bft) 100,00 %
20.02.2019 08:48 4,9 C 5,0 C 3,9 C 89 % 1020,1 hPa 0,0 l/m 0 min 0 min 50 W/m 12,9 km/h (3 Bft) 97,87 %
20.02.2019 08:46 4,9 C 5,0 C 3,9 C 89 % 1020,1 hPa 0,0 l/m 0 min 0 min 47 W/m 9,7 km/h (2 Bft) 97,87 %
20.02.2019 08:44 4,9 C 5,0 C 3,9 C 89 % 1020,1 hPa 0,0 l/m 0 min 0 min 46 W/m 9,7 km/h (2 Bft) 100,00 %
20.02.2019 08:42 4,9 C 5,0 C 3,9 C 88 % 1020,1 hPa 0,0 l/m 0 min 0 min 44 W/m 9,7 km/h (2 Bft) 100,00 %
20.02.2019 08:40 4,8 C 5,0 C 3,9 C 88 % 1020,0 hPa 0,0 l/m 0 min 0 min 41 W/m 9,7 km/h (2 Bft) 97,87 %
20.02.2019 08:38 4,8 C 5,0 C 3,9 C 88 % 1020,0 hPa 0,0 l/m 0 min 0 min 39 W/m 9,7 km/h (2 Bft) 97,14 %
20.02.2019 08:36 4,8 C 5,0 C 3,9 C 88 % 1020,0 hPa 0,0 l/m 0 min 0 min 38 W/m 9,7 km/h (2 Bft) 96,61 %
20.02.2019 08:34 4,8 C 4,4 C 3,9 C 88 % 1020,1 hPa 0,0 l/m 0 min 0 min 33 W/m 6,4 km/h (2 Bft) 95,74 %
20.02.2019 08:32 4,8 C 4,4 C 3,9 C 88 % 1020,0 hPa 0,0 l/m 0 min 0 min 31 W/m 9,7 km/h (2 Bft) 97,87 %
20.02.2019 08:30 4,8 C 4,4 C 3,9 C 88 % 1020,0 hPa 0,0 l/m 0 min 0 min 29 W/m 12,9 km/h (3 Bft) 95,65 %
20.02.2019 08:28 4,8 C 4,4 C 3,9 C 88 % 1020,0 hPa 0,0 l/m 0 min 0 min 28 W/m 9,7 km/h (2 Bft) 93,62 %
20.02.2019 08:26 4,8 C 4,4 C 3,9 C 88 % 1020,0 hPa 0,0 l/m 0 min 0 min 28 W/m 12,9 km/h (3 Bft) 93,62 %
20.02.2019 08:24 4,8 C 4,4 C 3,9 C 88 % 1020,0 hPa 0,0 l/m 0 min 0 min 28 W/m 6,4 km/h (2 Bft) 93,62 %
20.02.2019 08:22 4,8 C 4,4 C 3,9 C 88 % 1020,0 hPa 0,0 l/m 0 min 0 min 28 W/m 6,4 km/h (2 Bft) 95,74 %
20.02.2019 08:20 4,8 C 4,4 C 3,9 C 88 % 1020,0 hPa 0,0 l/m 0 min 0 min 28 W/m 9,7 km/h (2 Bft) 95,74 %
20.02.2019 08:18 4,8 C 4,4 C 3,9 C 88 % 1019,9 hPa 0,0 l/m 0 min 0 min 27 W/m 9,7 km/h (2 Bft) 95,65 %
20.02.2019 08:16 4,8 C 4,4 C 3,9 C 89 % 1019,9 hPa 0,0 l/m 0 min 0 min 26 W/m 6,4 km/h (2 Bft) 93,62 %
20.02.2019 08:14 4,8 C 4,4 C 3,9 C 89 % 1019,8 hPa 0,0 l/m 0 min 0 min 23 W/m 6,4 km/h (2 Bft) 95,74 %
20.02.2019 08:12 4,7 C 4,4 C 3,9 C 89 % 1019,9 hPa 0,0 l/m 0 min 0 min 22 W/m 9,7 km/h (2 Bft) 95,74 %
20.02.2019 08:10 4,7 C 4,4 C 3,9 C 89 % 1019,9 hPa 0,0 l/m 0 min 0 min 21 W/m 9,7 km/h (2 Bft) 93,62 %
20.02.2019 08:08 4,7 C 4,4 C 3,9 C 89 % 1019,9 hPa 0,0 l/m 0 min 0 min 20 W/m 9,7 km/h (2 Bft) 97,14 %
20.02.2019 08:06 4,7 C 4,4 C 3,9 C 89 % 1019,9 hPa 0,0 l/m 0 min 0 min 19 W/m 9,7 km/h (2 Bft) 94,83 %
20.02.2019 08:04 4,7 C 4,4 C 3,9 C 89 % 1019,8 hPa 0,0 l/m 0 min 0 min 18 W/m 9,7 km/h (2 Bft) 95,74 %
20.02.2019 08:02 4,7 C 4,4 C 3,9 C 89 % 1019,8 hPa 0,0 l/m 0 min 0 min 16 W/m 12,9 km/h (3 Bft) 95,74 %
20.02.2019 08:00 4,7 C 4,4 C 3,9 C 89 % 1019,8 hPa 0,0 l/m 0 min 0 min 14 W/m 9,7 km/h (2 Bft) 95,74 %
20.02.2019 07:58 4,7 C 4,4 C 3,9 C 89 % 1019,8 hPa 0,0 l/m 0 min 0 min 12 W/m 12,9 km/h (3 Bft) 95,74 %
20.02.2019 07:56 4,7 C 4,4 C 3,9 C 89 % 1019,8 hPa 0,0 l/m 0 min 0 min 11 W/m 9,7 km/h (2 Bft) 95,74 %
20.02.2019 07:54 4,6 C 4,4 C 3,9 C 89 % 1019,8 hPa 0,0 l/m 0 min 0 min 10 W/m 9,7 km/h (2 Bft) 95,65 %
20.02.2019 07:52 4,6 C 4,4 C 3,9 C 89 % 1019,8 hPa 0,0 l/m 0 min 0 min 7 W/m 16,1 km/h (3 Bft) 93,62 %
20.02.2019 07:50 4,6 C 4,4 C 3,9 C 89 % 1019,7 hPa 0,0 l/m 0 min 0 min 7 W/m 6,4 km/h (2 Bft) 97,87 %
20.02.2019 07:48 4,6 C 4,4 C 3,9 C 88 % 1019,8 hPa 0,0 l/m 0 min 0 min 5 W/m 12,9 km/h (3 Bft) 100,00 %
20.02.2019 07:46 4,6 C 4,4 C 3,9 C 88 % 1019,7 hPa 0,0 l/m 0 min 0 min 3 W/m 12,9 km/h (3 Bft) 97,87 %
20.02.2019 07:44 4,6 C 4,4 C 3,9 C 88 % 1019,7 hPa 0,0 l/m 0 min 0 min 0 W/m 9,7 km/h (2 Bft) 97,87 %
20.02.2019 07:42 4,6 C 4,4 C 3,9 C 88 % 1019,7 hPa 0,0 l/m 0 min 0 min 0 W/m 9,7 km/h (2 Bft) 97,83 %
20.02.2019 07:40 4,6 C 4,4 C 3,9 C 88 % 1019,6 hPa 0,0 l/m 0 min 0 min 0 W/m 9,7 km/h (2 Bft) 97,87 %
20.02.2019 07:38 4,6 C 4,4 C 3,9 C 88 % 1019,6 hPa 0,0 l/m 0 min 0 min 0 W/m 9,7 km/h (2 Bft) 97,14 %
20.02.2019 07:36 4,6 C 4,4 C 3,9 C 88 % 1019,7 hPa 0,0 l/m 0 min 0 min 0 W/m 3,2 km/h (1 Bft) 100,00 %
20.02.2019 07:34 4,6 C 4,4 C 3,9 C 88 % 1019,7 hPa 0,0 l/m 0 min 0 min 0 W/m 6,4 km/h (2 Bft) 100,00 %
20.02.2019 07:32 4,6 C 4,4 C 3,9 C 88 % 1019,7 hPa 0,0 l/m 0 min 0 min 0 W/m 9,7 km/h (2 Bft) 100,00 %
20.02.2019 07:30 4,6 C 4,4 C 3,9 C 88 % 1019,6 hPa 0,0 l/m 0 min 0 min 0 W/m 6,4 km/h (2 Bft) 100,00 %
20.02.2019 07:28 4,6 C 4,4 C 3,9 C 88 % 1019,6 hPa 0,0 l/m 0 min 0 min 0 W/m 9,7 km/h (2 Bft) 100,00 %
20.02.2019 07:26 4,6 C 4,4 C 3,3 C 88 % 1019,6 hPa 0,0 l/m 0 min 0 min 0 W/m 9,7 km/h (2 Bft) 100,00 %
20.02.2019 07:24 4,6 C 4,4 C 3,9 C 88 % 1019,6 hPa 0,0 l/m 0 min 0 min 0 W/m 6,4 km/h (2 Bft) 100,00 %
20.02.2019 07:22 4,6 C 4,4 C 3,9 C 88 % 1019,6 hPa 0,0 l/m 0 min 0 min 0 W/m 12,9 km/h (3 Bft) 97,87 %
20.02.2019 07:20 4,6 C 4,4 C 3,9 C 88 % 1019,5 hPa 0,0 l/m 0 min 0 min 0 W/m 9,7 km/h (2 Bft) 100,00 %
20.02.2019 07:18 4,6 C 4,4 C 3,3 C 88 % 1019,5 hPa 0,0 l/m 0 min 0 min 0 W/m 16,1 km/h (3 Bft) 100,00 %
20.02.2019 07:16 4,5 C 4,4 C 3,3 C 88 % 1019,5 hPa 0,0 l/m 0 min 0 min 0 W/m 9,7 km/h (2 Bft) 97,87 %
20.02.2019 07:14 4,5 C 4,4 C 3,3 C 88 % 1019,5 hPa 0,0 l/m 0 min 0 min 0 W/m 9,7 km/h (2 Bft) 100,00 %
20.02.2019 07:12 4,5 C 3,9 C 3,3 C 88 % 1019,5 hPa 0,0 l/m 0 min 0 min 0 W/m 9,7 km/h (2 Bft) 100,00 %
20.02.2019 07:10 4,5 C 3,9 C 3,3 C 88 % 1019,5 hPa 0,0 l/m 0 min 0 min 0 W/m 9,7 km/h (2 Bft) 100,00 %
20.02.2019 07:08 4,5 C 3,9 C 3,3 C 88 % 1019,5 hPa 0,0 l/m 0 min 0 min 0 W/m 9,7 km/h (2 Bft) 100,00 %
20.02.2019 07:06 4,5 C 3,9 C 3,3 C 88 % 1019,4 hPa 0,0 l/m 0 min 0 min 0 W/m 9,7 km/h (2 Bft) 100,00 %
20.02.2019 07:04 4,5 C 3,9 C 3,3 C 88 % 1019,4 hPa 0,0 l/m 0 min 0 min 0 W/m 9,7 km/h (2 Bft) 100,00 %
20.02.2019 07:02 4,5 C 3,9 C 3,3 C 88 % 1019,4 hPa 0,0 l/m 0 min 0 min 0 W/m 9,7 km/h (2 Bft) 97,87 %
20.02.2019 07:00 4,5 C 3,9 C 3,3 C 88 % 1019,3 hPa 0,0 l/m 0 min 0 min 0 W/m 9,7 km/h (2 Bft) 100,00 %
20.02.2019 06:58 4,5 C 3,9 C 3,3 C 88 % 1019,4 hPa 0,0 l/m 0 min 0 min 0 W/m 9,7 km/h (2 Bft) 100,00 %
20.02.2019 06:56 4,5 C 3,9 C 3,3 C 88 % 1019,4 hPa 0,0 l/m 0 min 0 min 0 W/m 9,7 km/h (2 Bft) 97,83 %
20.02.2019 06:54 4,5 C 3,9 C 3,3 C 88 % 1019,4 hPa 0,0 l/m 0 min 0 min 0 W/m 9,7 km/h (2 Bft) 100,00 %
20.02.2019 06:52 4,5 C 3,9 C 3,3 C 88 % 1019,4 hPa 0,0 l/m 0 min 0 min 0 W/m 9,7 km/h (2 Bft) 100,00 %
20.02.2019 06:50 4,6 C 3,9 C 3,3 C 88 % 1019,3 hPa 0,0 l/m 0 min 0 min 0 W/m 6,4 km/h (2 Bft) 100,00 %
20.02.2019 06:48 4,6 C 3,9 C 3,3 C 88 % 1019,3 hPa 0,0 l/m 0 min 0 min 0 W/m 6,4 km/h (2 Bft) 100,00 %
20.02.2019 06:46 4,6 C 3,9 C 3,3 C 88 % 1019,3 hPa 0,0 l/m 0 min 0 min 0 W/m 9,7 km/h (2 Bft) 97,87 %
20.02.2019 06:44 4,6 C 3,9 C 3,3 C 88 % 1019,4 hPa 0,0 l/m 0 min 0 min 0 W/m 6,4 km/h (2 Bft) 100,00 %
20.02.2019 06:42 4,6 C 3,9 C 3,3 C 88 % 1019,3 hPa 0,0 l/m 0 min 0 min 0 W/m 6,4 km/h (2 Bft) 100,00 %
20.02.2019 06:40 4,6 C 3,9 C 3,3 C 88 % 1019,3 hPa 0,0 l/m 0 min 0 min 0 W/m 9,7 km/h (2 Bft) 100,00 %
20.02.2019 06:38 4,6 C 3,9 C 3,3 C 88 % 1019,4 hPa 0,0 l/m 0 min 0 min 0 W/m 6,4 km/h (2 Bft) 97,14 %
20.02.2019 06:36 4,6 C 3,9 C 3,3 C 88 % 1019,3 hPa 0,0 l/m 0 min 0 min 0 W/m 9,7 km/h (2 Bft) 98,31 %
20.02.2019 06:34 4,6 C 3,9 C 3,3 C 88 % 1019,3 hPa 0,0 l/m 0 min 0 min 0 W/m 9,7 km/h (2 Bft) 100,00 %
20.02.2019 06:32 4,6 C 3,9 C 3,3 C 88 % 1019,4 hPa 0,0 l/m 0 min 0 min 0 W/m 6,4 km/h (2 Bft) 100,00 %
20.02.2019 06:30 4,6 C 3,9 C 3,3 C 88 % 1019,3 hPa 0,0 l/m 0 min 0 min 0 W/m 9,7 km/h (2 Bft) 97,87 %
20.02.2019 06:28 4,7 C 3,9 C 3,3 C 88 % 1019,4 hPa 0,0 l/m 0 min 0 min 0 W/m 6,4 km/h (2 Bft) 97,87 %
20.02.2019 06:26 4,7 C 3,9 C 3,3 C 88 % 1019,3 hPa 0,0 l/m 0 min 0 min 0 W/m 9,7 km/h (2 Bft) 97,87 %
20.02.2019 06:24 4,7 C 4,4 C 3,3 C 88 % 1019,3 hPa 0,0 l/m 0 min 0 min 0 W/m 12,9 km/h (3 Bft) 95,74 %
20.02.2019 06:22 4,7 C 4,4 C 3,3 C 88 % 1019,4 hPa 0,0 l/m 0 min 0 min 0 W/m 12,9 km/h (3 Bft) 97,83 %
20.02.2019 06:20 4,7 C 4,4 C 3,3 C 88 % 1019,3 hPa 0,0 l/m 0 min 0 min 0 W/m 12,9 km/h (3 Bft) 97,87 %
20.02.2019 06:18 4,7 C 4,4 C 3,9 C 88 % 1019,4 hPa 0,0 l/m 0 min 0 min 0 W/m 12,9 km/h (3 Bft) 97,87 %
20.02.2019 06:16 4,6 C 3,9 C 3,3 C 88 % 1019,3 hPa 0,0 l/m 0 min 0 min 0 W/m 9,7 km/h (2 Bft) 97,87 %
20.02.2019 06:14 4,6 C 4,4 C 3,9 C 88 % 1019,4 hPa 0,0 l/m 0 min 0 min 0 W/m 9,7 km/h (2 Bft) 97,87 %
20.02.2019 06:12 4,6 C 4,4 C 3,9 C 88 % 1019,4 hPa 0,0 l/m 0 min 0 min 0 W/m 6,4 km/h (2 Bft) 97,87 %
20.02.2019 06:10 4,6 C 4,4 C 3,9 C 88 % 1019,4 hPa 0,0 l/m 0 min 0 min 0 W/m 6,4 km/h (2 Bft) 95,74 %
20.02.2019 06:08 4,6 C 4,4 C 3,9 C 88 % 1019,5 hPa 0,0 l/m 0 min 0 min 0 W/m 9,7 km/h (2 Bft) 93,62 %
20.02.2019 06:04 4,6 C 4,4 C 3,9 C 88 % 1019,4 hPa 0,0 l/m 0 min 0 min 0 W/m 12,9 km/h (3 Bft) 95,74 %
20.02.2019 06:02 4,6 C 4,4 C 3,9 C 88 % 1019,4 hPa 0,0 l/m 0 min 0 min 0 W/m 6,4 km/h (2 Bft) 91,84 %
20.02.2019 06:00 4,6 C 4,4 C 3,9 C 88 % 1019,4 hPa 0,0 l/m 0 min 0 min 0 W/m 9,7 km/h (2 Bft) 95,74 %
20.02.2019 05:58 4,6 C 4,4 C 3,9 C 88 % 1019,5 hPa 0,0 l/m 0 min 0 min 0 W/m 9,7 km/h (2 Bft) 93,62 %
20.02.2019 05:56 4,6 C 4,4 C 3,9 C 88 % 1019,5 hPa 0,0 l/m 0 min 0 min 0 W/m 9,7 km/h (2 Bft) 95,74 %
20.02.2019 05:54 4,6 C 4,4 C 3,9 C 88 % 1019,5 hPa 0,0 l/m 0 min 0 min 0 W/m 9,7 km/h (2 Bft) 91,49 %
20.02.2019 05:52 4,6 C 4,4 C 3,9 C 88 % 1019,5 hPa 0,0 l/m 0 min 0 min 0 W/m 9,7 km/h (2 Bft) 93,62 %
20.02.2019 05:50 4,6 C 4,4 C 3,9 C 88 % 1019,4 hPa 0,0 l/m 0 min 0 min 0 W/m 9,7 km/h (2 Bft) 91,30 %
20.02.2019 05:48 4,6 C 4,4 C 3,9 C 88 % 1019,4 hPa 0,0 l/m 0 min 0 min 0 W/m 9,7 km/h (2 Bft) 89,36 %
20.02.2019 05:46 4,5 C 4,4 C 3,9 C 88 % 1019,5 hPa 0,0 l/m 0 min 0 min 0 W/m 12,9 km/h (3 Bft) 93,62 %
20.02.2019 05:44 4,5 C 4,4 C 3,9 C 88 % 1019,5 hPa 0,0 l/m 0 min 0 min 0 W/m 9,7 km/h (2 Bft) 93,62 %
20.02.2019 05:42 4,5 C 3,9 C 3,3 C 88 % 1019,4 hPa 0,0 l/m 0 min 0 min 0 W/m 9,7 km/h (2 Bft) 93,62 %
20.02.2019 05:40 4,5 C 3,9 C 3,3 C 88 % 1019,4 hPa 0,0 l/m 0 min 0 min 0 W/m 9,7 km/h (2 Bft) 91,49 %
20.02.2019 05:38 4,5 C 3,9 C 3,3 C 88 % 1019,4 hPa 0,0 l/m 0 min 0 min 0 W/m 12,9 km/h (3 Bft) 97,14 %
20.02.2019 05:36 4,5 C 3,9 C 3,3 C 88 % 1019,4 hPa 0,0 l/m 0 min 0 min 0 W/m 9,7 km/h (2 Bft) 89,66 %
20.02.2019 05:34 4,5 C 3,9 C 3,3 C 88 % 1019,4 hPa 0,0 l/m 0 min 0 min 0 W/m 12,9 km/h (3 Bft) 93,62 %
20.02.2019 05:32 4,5 C 3,9 C 3,3 C 88 % 1019,4 hPa 0,0 l/m 0 min 0 min 0 W/m 12,9 km/h (3 Bft) 91,49 %
20.02.2019 05:30 4,5 C 3,9 C 3,3 C 88 % 1019,4 hPa 0,0 l/m 0 min 0 min 0 W/m 12,9 km/h (3 Bft) 95,74 %
20.02.2019 05:28 4,5 C 3,9 C 3,3 C 88 % 1019,4 hPa 0,0 l/m 0 min 0 min 0 W/m 12,9 km/h (3 Bft) 97,87 %
20.02.2019 05:26 4,5 C 3,9 C 3,3 C 88 % 1019,4 hPa 0,0 l/m 0 min 0 min 0 W/m 6,4 km/h (2 Bft) 97,83 %
20.02.2019 05:24 4,5 C 3,9 C 3,3 C 88 % 1019,4 hPa 0,0 l/m 0 min 0 min 0 W/m 9,7 km/h (2 Bft) 95,74 %
20.02.2019 05:22 4,5 C 3,9 C 3,3 C 88 % 1019,4 hPa 0,0 l/m 0 min 0 min 0 W/m 9,7 km/h (2 Bft) 95,74 %
20.02.2019 05:20 4,5 C 3,9 C 3,3 C 88 % 1019,4 hPa 0,0 l/m 0 min 0 min 0 W/m 12,9 km/h (3 Bft) 93,62 %
20.02.2019 05:18 4,5 C 3,9 C 3,3 C 88 % 1019,4 hPa 0,0 l/m 0 min 0 min 0 W/m 6,4 km/h (2 Bft) 83,33 %
20.02.2019 05:17 4,5 C 3,9 C 3,3 C 88 % 1019,4 hPa 0,0 l/m 0 min 0 min 0 W/m 12,9 km/h (3 Bft) 50,00 %
20.02.2019 05:12 4,5 C 3,9 C 3,3 C 88 % 1019,4 hPa 0,0 l/m 0 min 0 min 0 W/m 6,4 km/h (2 Bft) 100,00 %
20.02.2019 05:10 4,5 C 3,9 C 3,3 C 88 % 1019,4 hPa 0,0 l/m 0 min 0 min 0 W/m 12,9 km/h (3 Bft) 100,00 %
20.02.2019 05:05 4,5 C 3,9 C 3,3 C 88 % 1019,4 hPa 0,0 l/m 0 min 0 min 0 W/m 9,7 km/h (2 Bft) 100,00 %
20.02.2019 05:04 4,5 C 3,9 C 3,3 C 88 % 1019,3 hPa 0,0 l/m 0 min 0 min 0 W/m 9,7 km/h (2 Bft) 97,87 %
20.02.2019 05:02 4,5 C 3,9 C 3,3 C 88 % 1019,4 hPa 0,0 l/m 0 min 0 min 0 W/m 9,7 km/h (2 Bft) 100,00 %
20.02.2019 05:00 4,5 C 3,9 C 3,3 C 88 % 1019,4 hPa 0,0 l/m 0 min 0 min 0 W/m 9,7 km/h (2 Bft) 100,00 %
20.02.2019 04:58 4,5 C 3,9 C 3,3 C 88 % 1019,4 hPa 0,0 l/m 0 min 0 min 0 W/m 9,7 km/h (2 Bft) 100,00 %
20.02.2019 04:56 4,5 C 3,9 C 3,3 C 88 % 1019,3 hPa 0,0 l/m 0 min 0 min 0 W/m 9,7 km/h (2 Bft) 100,00 %
20.02.2019 04:54 4,5 C 3,9 C 3,3 C 88 % 1019,3 hPa 0,0 l/m 0 min 0 min 0 W/m 9,7 km/h (2 Bft) 100,00 %
20.02.2019 04:52 4,5 C 3,9 C 3,3 C 88 % 1019,3 hPa 0,0 l/m 0 min 0 min 0 W/m 9,7 km/h (2 Bft) 97,87 %
20.02.2019 04:50 4,5 C 3,9 C 3,3 C 88 % 1019,3 hPa 0,0 l/m 0 min 0 min 0 W/m 6,4 km/h (2 Bft) 100,00 %
20.02.2019 04:48 4,5 C 3,9 C 3,3 C 88 % 1019,3 hPa 0,0 l/m 0 min 0 min 0 W/m 12,9 km/h (3 Bft) 100,00 %
20.02.2019 04:46 4,5 C 4,4 C 3,3 C 88 % 1019,3 hPa 0,0 l/m 0 min 0 min 0 W/m 12,9 km/h (3 Bft) 100,00 %
20.02.2019 04:44 4,5 C 3,9 C 3,3 C 88 % 1019,3 hPa 0,0 l/m 0 min 0 min 0 W/m 9,7 km/h (2 Bft) 100,00 %
20.02.2019 04:42 4,4 C 3,9 C 3,3 C 88 % 1019,3 hPa 0,0 l/m 0 min 0 min 0 W/m 9,7 km/h (2 Bft) 97,87 %
20.02.2019 04:40 4,4 C 3,9 C 3,3 C 88 % 1019,2 hPa 0,0 l/m 0 min 0 min 0 W/m 12,9 km/h (3 Bft) 100,00 %
20.02.2019 04:38 4,4 C 3,9 C 3,3 C 88 % 1019,2 hPa 0,0 l/m 0 min 0 min 0 W/m 12,9 km/h (3 Bft) 100,00 %
20.02.2019 04:36 4,4 C 3,9 C 3,3 C 88 % 1019,2 hPa 0,0 l/m 0 min 0 min 0 W/m 9,7 km/h (2 Bft) 100,00 %
20.02.2019 04:34 4,4 C 3,9 C 3,3 C 88 % 1019,1 hPa 0,0 l/m 0 min 0 min 0 W/m 9,7 km/h (2 Bft) 100,00 %
20.02.2019 04:32 4,4 C 3,9 C 3,3 C 88 % 1019,1 hPa 0,0 l/m 0 min 0 min 0 W/m 12,9 km/h (3 Bft) 100,00 %
20.02.2019 04:30 4,4 C 3,9 C 3,3 C 87 % 1019,1 hPa 0,0 l/m 0 min 0 min 0 W/m 12,9 km/h (3 Bft) 100,00 %
20.02.2019 04:28 4,4 C 3,9 C 3,3 C 87 % 1019,1 hPa 0,0 l/m 0 min 0 min 0 W/m 9,7 km/h (2 Bft) 97,83 %
20.02.2019 04:26 4,4 C 3,9 C 3,3 C 87 % 1019,1 hPa 0,0 l/m 0 min 0 min 0 W/m 9,7 km/h (2 Bft) 97,87 %
20.02.2019 04:24 4,4 C 3,9 C 3,3 C 87 % 1019,1 hPa 0,0 l/m 0 min 0 min 0 W/m 9,7 km/h (2 Bft) 100,00 %
20.02.2019 04:22 4,5 C 3,9 C 3,3 C 87 % 1019,1 hPa 0,0 l/m 0 min 0 min 0 W/m 9,7 km/h (2 Bft) 100,00 %
20.02.2019 04:20 4,5 C 3,9 C 2,8 C 87 % 1019,1 hPa 0,0 l/m 0 min 0 min 0 W/m 6,4 km/h (2 Bft) 100,00 %
20.02.2019 04:18 4,5 C 3,9 C 2,8 C 87 % 1019,1 hPa 0,0 l/m 0 min 0 min 0 W/m 6,4 km/h (2 Bft) 100,00 %
20.02.2019 04:16 4,6 C 3,9 C 3,3 C 87 % 1019,1 hPa 0,0 l/m 0 min 0 min 0 W/m 6,4 km/h (2 Bft) 100,00 %
20.02.2019 04:14 4,6 C 3,9 C 2,8 C 87 % 1019,1 hPa 0,0 l/m 0 min 0 min 0 W/m 6,4 km/h (2 Bft) 100,00 %
20.02.2019 04:12 4,6 C 3,9 C 3,3 C 87 % 1019,0 hPa 0,0 l/m 0 min 0 min 0 W/m 9,7 km/h (2 Bft) 100,00 %
20.02.2019 04:10 4,6 C 3,9 C 3,3 C 87 % 1019,1 hPa 0,0 l/m 0 min 0 min 0 W/m 6,4 km/h (2 Bft) 97,87 %
20.02.2019 04:08 4,6 C 3,9 C 3,3 C 87 % 1019,1 hPa 0,0 l/m 0 min 0 min 0 W/m 6,4 km/h (2 Bft) 100,00 %
20.02.2019 04:06 4,7 C 3,9 C 3,3 C 87 % 1019,1 hPa 0,0 l/m 0 min 0 min 0 W/m 6,4 km/h (2 Bft) 100,00 %
20.02.2019 04:05 4,7 C 3,9 C 3,3 C 87 % 1019,1 hPa 0,0 l/m 0 min 0 min 0 W/m 6,4 km/h (2 Bft) 100,00 %
20.02.2019 04:00 4,7 C 3,9 C 3,3 C 87 % 1019,1 hPa 0,0 l/m 0 min 0 min 0 W/m 6,4 km/h (2 Bft) 100,00 %
20.02.2019 03:58 4,7 C 3,9 C 3,3 C 87 % 1019,1 hPa 0,0 l/m 0 min 0 min 0 W/m 9,7 km/h (2 Bft) 100,00 %
20.02.2019 03:56 4,7 C 3,9 C 3,3 C 87 % 1019,1 hPa 0,0 l/m 0 min 0 min 0 W/m 9,7 km/h (2 Bft) 97,87 %
20.02.2019 03:54 4,7 C 3,9 C 3,3 C 87 % 1019,1 hPa 0,0 l/m 0 min 0 min 0 W/m 6,4 km/h (2 Bft) 100,00 %
20.02.2019 03:52 4,8 C 3,9 C 3,3 C 87 % 1019,1 hPa 0,0 l/m 0 min 0 min 0 W/m 6,4 km/h (2 Bft) 100,00 %
20.02.2019 03:50 4,8 C 3,9 C 3,3 C 87 % 1019,1 hPa 0,0 l/m 0 min 0 min 0 W/m 6,4 km/h (2 Bft) 98,18 %
20.02.2019 03:48 4,8 C 3,9 C 3,3 C 87 % 1019,1 hPa 0,0 l/m 0 min 0 min 0 W/m 6,4 km/h (2 Bft) 97,87 %
20.02.2019 03:46 4,8 C 3,9 C 3,3 C 87 % 1019,2 hPa 0,0 l/m 0 min 0 min 0 W/m 9,7 km/h (2 Bft) 97,14 %
20.02.2019 03:44 4,8 C 3,9 C 3,9 C 87 % 1019,2 hPa 0,0 l/m 0 min 0 min 0 W/m 6,4 km/h (2 Bft) 97,87 %
20.02.2019 03:42 4,8 C 4,4 C 3,9 C 87 % 1019,2 hPa 0,0 l/m 0 min 0 min 0 W/m 6,4 km/h (2 Bft) 97,87 %
20.02.2019 03:40 4,8 C 4,4 C 3,9 C 87 % 1019,1 hPa 0,0 l/m 0 min 0 min 0 W/m 9,7 km/h (2 Bft) 97,87 %
20.02.2019 03:38 4,8 C 4,4 C 3,9 C 87 % 1019,1 hPa 0,0 l/m 0 min 0 min 0 W/m 6,4 km/h (2 Bft) 97,83 %
20.02.2019 03:36 4,8 C 4,4 C 3,9 C 87 % 1019,1 hPa 0,0 l/m 0 min 0 min 0 W/m 6,4 km/h (2 Bft) 95,74 %
20.02.2019 03:34 4,8 C 4,4 C 3,9 C 87 % 1019,2 hPa 0,0 l/m 0 min 0 min 0 W/m 9,7 km/h (2 Bft) 95,92 %
20.02.2019 03:32 4,8 C 4,4 C 3,9 C 87 % 1019,2 hPa 0,0 l/m 0 min 0 min 0 W/m 9,7 km/h (2 Bft) 98,00 %
20.02.2019 03:30 4,8 C 4,4 C 3,9 C 87 % 1019,2 hPa 0,0 l/m 0 min 0 min 0 W/m 6,4 km/h (2 Bft) 97,87 %
20.02.2019 03:28 4,8 C 4,4 C 3,9 C 87 % 1019,2 hPa 0,0 l/m 0 min 0 min 0 W/m 9,7 km/h (2 Bft) 97,83 %
20.02.2019 03:26 4,8 C 4,4 C 3,9 C 87 % 1019,2 hPa 0,0 l/m 0 min 0 min 0 W/m 6,4 km/h (2 Bft) 97,87 %
20.02.2019 03:24 4,8 C 4,4 C 3,9 C 87 % 1019,2 hPa 0,0 l/m 0 min 0 min 0 W/m 6,4 km/h (2 Bft) 97,87 %
20.02.2019 03:22 4,8 C 4,4 C 3,9 C 87 % 1019,2 hPa 0,0 l/m 0 min 0 min 0 W/m 9,7 km/h (2 Bft) 95,74 %
20.02.2019 03:20 4,8 C 4,4 C 3,9 C 87 % 1019,2 hPa 0,0 l/m 0 min 0 min 0 W/m 6,4 km/h (2 Bft) 95,74 %
20.02.2019 03:18 4,8 C 4,4 C 3,9 C 87 % 1019,2 hPa 0,0 l/m 0 min 0 min 0 W/m 6,4 km/h (2 Bft) 95,74 %
20.02.2019 03:16 4,8 C 4,4 C 3,9 C 87 % 1019,2 hPa 0,0 l/m 0 min 0 min 0 W/m 6,4 km/h (2 Bft) 97,83 %
20.02.2019 03:14 4,8 C 4,4 C 3,9 C 87 % 1019,2 hPa 0,0 l/m 0 min 0 min 0 W/m 16,1 km/h (3 Bft) 97,87 %
20.02.2019 03:12 4,8 C 4,4 C 3,9 C 87 % 1019,2 hPa 0,0 l/m 0 min 0 min 0 W/m 6,4 km/h (2 Bft) 97,87 %
20.02.2019 03:10 4,8 C 4,4 C 3,9 C 87 % 1019,2 hPa 0,0 l/m 0 min 0 min 0 W/m 9,7 km/h (2 Bft) 100,00 %
20.02.2019 03:08 4,8 C 4,4 C 3,9 C 87 % 1019,2 hPa 0,0 l/m 0 min 0 min 0 W/m 9,7 km/h (2 Bft) 94,29 %
20.02.2019 03:06 4,8 C 4,4 C 3,9 C 87 % 1019,2 hPa 0,0 l/m 0 min 0 min 0 W/m 12,9 km/h (3 Bft) 100,00 %
20.02.2019 03:04 4,8 C 4,4 C 3,3 C 87 % 1019,3 hPa 0,0 l/m 0 min 0 min 0 W/m 12,9 km/h (3 Bft) 95,65 %
20.02.2019 03:02 4,9 C 4,4 C 3,3 C 87 % 1019,3 hPa 0,0 l/m 0 min 0 min 0 W/m 6,4 km/h (2 Bft) 95,74 %
20.02.2019 03:00 4,9 C 4,4 C 3,3 C 87 % 1019,3 hPa 0,0 l/m 0 min 0 min 0 W/m 9,7 km/h (2 Bft) 97,87 %
20.02.2019 02:58 4,9 C 4,4 C 3,3 C 87 % 1019,3 hPa 0,0 l/m 0 min 0 min 0 W/m 9,7 km/h (2 Bft) 95,74 %
20.02.2019 02:56 4,9 C 4,4 C 3,3 C 87 % 1019,4 hPa 0,0 l/m 0 min 0 min 0 W/m 6,4 km/h (2 Bft) 95,74 %
20.02.2019 02:54 4,9 C 4,4 C 3,3 C 87 % 1019,4 hPa 0,0 l/m 0 min 0 min 0 W/m 9,7 km/h (2 Bft) 91,49 %
20.02.2019 02:52 4,9 C 4,4 C 3,3 C 87 % 1019,4 hPa 0,0 l/m 0 min 0 min 0 W/m 6,4 km/h (2 Bft) 95,65 %
20.02.2019 02:50 4,9 C 4,4 C 3,9 C 87 % 1019,4 hPa 0,0 l/m 0 min 0 min 0 W/m 9,7 km/h (2 Bft) 97,87 %
20.02.2019 02:48 4,9 C 4,4 C 3,3 C 87 % 1019,4 hPa 0,0 l/m 0 min 0 min 0 W/m 9,7 km/h (2 Bft) 97,87 %
20.02.2019 02:46 4,9 C 4,4 C 3,3 C 87 % 1019,4 hPa 0,0 l/m 0 min 0 min 0 W/m 6,4 km/h (2 Bft) 97,87 %
20.02.2019 02:44 5,0 C 3,9 C 3,3 C 87 % 1019,4 hPa 0,0 l/m 0 min 0 min 0 W/m 0,0 km/h (0 Bft) 95,74 %
20.02.2019 02:42 5,0 C 3,9 C 3,3 C 87 % 1019,4 hPa 0,0 l/m 0 min 0 min 0 W/m 6,4 km/h (2 Bft) 97,83 %
20.02.2019 02:40 5,0 C 4,4 C 3,9 C 87 % 1019,3 hPa 0,0 l/m 0 min 0 min 0 W/m 9,7 km/h (2 Bft) 95,74 %
20.02.2019 02:38 5,0 C 4,4 C 3,3 C 87 % 1019,4 hPa 0,0 l/m 0 min 0 min 0 W/m 6,4 km/h (2 Bft) 95,74 %
20.02.2019 02:36 5,0 C 4,4 C 3,3 C 87 % 1019,4 hPa 0,0 l/m 0 min 0 min 0 W/m 6,4 km/h (2 Bft) 95,74 %
20.02.2019 02:34 5,1 C 4,4 C 3,9 C 87 % 1019,4 hPa 0,0 l/m 0 min 0 min 0 W/m 3,2 km/h (1 Bft) 95,74 %
20.02.2019 02:32 5,1 C 4,4 C 3,9 C 87 % 1019,4 hPa 0,0 l/m 0 min 0 min 0 W/m 6,4 km/h (2 Bft) 95,74 %
20.02.2019 02:30 5,1 C 4,4 C 3,9 C 87 % 1019,4 hPa 0,0 l/m 0 min 0 min 0 W/m 6,4 km/h (2 Bft) 95,65 %
20.02.2019 02:28 5,1 C 4,4 C 3,9 C 87 % 1019,4 hPa 0,0 l/m 0 min 0 min 0 W/m 9,7 km/h (2 Bft) 95,74 %
20.02.2019 02:26 5,1 C 4,4 C 3,9 C 87 % 1019,3 hPa 0,0 l/m 0 min 0 min 0 W/m 9,7 km/h (2 Bft) 93,62 %
20.02.2019 02:24 5,1 C 4,4 C 3,9 C 87 % 1019,4 hPa 0,0 l/m 0 min 0 min 0 W/m 9,7 km/h (2 Bft) 93,62 %
20.02.2019 02:22 5,1 C 4,4 C 3,9 C 87 % 1019,4 hPa 0,0 l/m 0 min 0 min 0 W/m 6,4 km/h (2 Bft) 93,62 %
20.02.2019 02:20 5,1 C 4,4 C 3,9 C 87 % 1019,3 hPa 0,0 l/m 0 min 0 min 0 W/m 9,7 km/h (2 Bft) 95,74 %
20.02.2019 02:18 5,1 C 4,4 C 3,9 C 87 % 1019,3 hPa 0,0 l/m 0 min 0 min 0 W/m 9,7 km/h (2 Bft) 95,65 %
20.02.2019 02:16 5,1 C 4,4 C 3,9 C 87 % 1019,4 hPa 0,0 l/m 0 min 0 min 0 W/m 9,7 km/h (2 Bft) 95,74 %
20.02.2019 02:14 5,1 C 4,4 C 3,9 C 87 % 1019,4 hPa 0,0 l/m 0 min 0 min 0 W/m 12,9 km/h (3 Bft) 95,74 %
20.02.2019 02:12 5,1 C 4,4 C 3,9 C 87 % 1019,4 hPa 0,0 l/m 0 min 0 min 0 W/m 9,7 km/h (2 Bft) 95,74 %
20.02.2019 02:10 5,1 C 4,4 C 3,9 C 87 % 1019,3 hPa 0,0 l/m 0 min 0 min 0 W/m 9,7 km/h (2 Bft) 97,87 %
20.02.2019 02:08 5,1 C 4,4 C 3,9 C 87 % 1019,4 hPa 0,0 l/m 0 min 0 min 0 W/m 9,7 km/h (2 Bft) 100,00 %
20.02.2019 02:06 5,1 C 4,4 C 3,9 C 87 % 1019,3 hPa 0,0 l/m 0 min 0 min 0 W/m 9,7 km/h (2 Bft) 94,83 %
20.02.2019 02:04 5,1 C 4,4 C 3,9 C 87 % 1019,3 hPa 0,0 l/m 0 min 0 min 0 W/m 12,9 km/h (3 Bft) 97,87 %
20.02.2019 02:02 5,1 C 4,4 C 3,9 C 87 % 1019,3 hPa 0,0 l/m 0 min 0 min 0 W/m 9,7 km/h (2 Bft) 97,87 %
20.02.2019 02:00 5,1 C 4,4 C 3,9 C 86 % 1019,3 hPa 0,0 l/m 0 min 0 min 0 W/m 9,7 km/h (2 Bft) 97,87 %
20.02.2019 01:58 5,1 C 4,4 C 3,9 C 86 % 1019,3 hPa 0,0 l/m 0 min 0 min 0 W/m 9,7 km/h (2 Bft) 95,74 %
20.02.2019 01:56 5,1 C 4,4 C 3,9 C 86 % 1019,2 hPa 0,0 l/m 0 min 0 min 0 W/m 9,7 km/h (2 Bft) 97,87 %
20.02.2019 01:54 5,1 C 4,4 C 3,9 C 87 % 1019,3 hPa 0,0 l/m 0 min 0 min 0 W/m 6,4 km/h (2 Bft) 97,83 %
20.02.2019 01:52 5,1 C 4,4 C 3,9 C 87 % 1019,3 hPa 0,0 l/m 0 min 0 min 0 W/m 9,7 km/h (2 Bft) 97,87 %
20.02.2019 01:50 5,1 C 4,4 C 3,9 C 86 % 1019,3 hPa 0,0 l/m 0 min 0 min 0 W/m 6,4 km/h (2 Bft) 97,87 %
20.02.2019 01:48 5,1 C 4,4 C 3,9 C 86 % 1019,3 hPa 0,0 l/m 0 min 0 min 0 W/m 6,4 km/h (2 Bft) 97,87 %
20.02.2019 01:46 5,1 C 4,4 C 3,9 C 86 % 1019,2 hPa 0,0 l/m 0 min 0 min 0 W/m 6,4 km/h (2 Bft) 95,74 %
20.02.2019 01:44 5,1 C 4,4 C 3,9 C 86 % 1019,2 hPa 0,0 l/m 0 min 0 min 0 W/m 6,4 km/h (2 Bft) 97,87 %
20.02.2019 01:42 5,1 C 4,4 C 3,9 C 86 % 1019,3 hPa 0,0 l/m 0 min 0 min 0 W/m 9,7 km/h (2 Bft) 95,65 %
20.02.2019 01:40 5,1 C 4,4 C 3,9 C 86 % 1019,2 hPa 0,0 l/m 0 min 0 min 0 W/m 6,4 km/h (2 Bft) 97,87 %
20.02.2019 01:38 5,2 C 4,4 C 3,9 C 86 % 1019,3 hPa 0,0 l/m 0 min 0 min 0 W/m 6,4 km/h (2 Bft) 97,87 %
20.02.2019 01:36 5,2 C 4,4 C 3,9 C 86 % 1019,3 hPa 0,0 l/m 0 min 0 min 0 W/m 6,4 km/h (2 Bft) 95,74 %
20.02.2019 01:34 5,2 C 4,4 C 3,9 C 86 % 1019,4 hPa 0,0 l/m 0 min 0 min 0 W/m 6,4 km/h (2 Bft) 95,74 %
20.02.2019 01:32 5,2 C 4,4 C 3,9 C 86 % 1019,3 hPa 0,0 l/m 0 min 0 min 0 W/m 9,7 km/h (2 Bft) 97,83 %
20.02.2019 01:30 5,2 C 4,4 C 3,9 C 86 % 1019,4 hPa 0,0 l/m 0 min 0 min 0 W/m 6,4 km/h (2 Bft) 95,74 %
20.02.2019 01:28 5,2 C 4,4 C 3,9 C 86 % 1019,3 hPa 0,0 l/m 0 min 0 min 0 W/m 3,2 km/h (1 Bft) 97,87 %
20.02.2019 01:26 5,2 C 4,4 C 3,9 C 86 % 1019,3 hPa 0,0 l/m 0 min 0 min 0 W/m 6,4 km/h (2 Bft) 97,87 %
20.02.2019 01:24 5,2 C 4,4 C 3,9 C 86 % 1019,4 hPa 0,0 l/m 0 min 0 min 0 W/m 6,4 km/h (2 Bft) 97,87 %
20.02.2019 01:22 5,2 C 4,4 C 3,9 C 86 % 1019,4 hPa 0,0 l/m 0 min 0 min 0 W/m 6,4 km/h (2 Bft) 97,87 %
20.02.2019 01:20 5,2 C 4,4 C 3,9 C 86 % 1019,3 hPa 0,0 l/m 0 min 0 min 0 W/m 9,7 km/h (2 Bft) 95,65 %
20.02.2019 01:18 5,2 C 4,4 C 3,9 C 86 % 1019,3 hPa 0,0 l/m 0 min 0 min 0 W/m 6,4 km/h (2 Bft) 97,87 %
20.02.2019 01:16 5,2 C 4,4 C 3,9 C 86 % 1019,4 hPa 0,0 l/m 0 min 0 min 0 W/m 6,4 km/h (2 Bft) 97,87 %
20.02.2019 01:14 5,2 C 4,4 C 3,9 C 87 % 1019,3 hPa 0,0 l/m 0 min 0 min 0 W/m 6,4 km/h (2 Bft) 97,87 %
20.02.2019 01:12 5,2 C 4,4 C 3,9 C 87 % 1019,3 hPa 0,0 l/m 0 min 0 min 0 W/m 6,4 km/h (2 Bft) 97,87 %
20.02.2019 01:10 5,2 C 5,0 C 3,9 C 87 % 1019,3 hPa 0,0 l/m 0 min 0 min 0 W/m 6,4 km/h (2 Bft) 97,87 %
20.02.2019 01:08 5,2 C 5,0 C 3,9 C 86 % 1019,3 hPa 0,0 l/m 0 min 0 min 0 W/m 6,4 km/h (2 Bft) 97,83 %
20.02.2019 01:06 5,2 C 5,0 C 3,9 C 86 % 1019,3 hPa 0,0 l/m 0 min 0 min 0 W/m 0,0 km/h (0 Bft) 95,74 %
20.02.2019 01:04 5,2 C 4,4 C 3,9 C 86 % 1019,3 hPa 0,0 l/m 0 min 0 min 0 W/m 0,0 km/h (0 Bft) 97,87 %
20.02.2019 01:02 5,2 C 4,4 C 3,9 C 86 % 1019,4 hPa 0,0 l/m 0 min 0 min 0 W/m 0,0 km/h (0 Bft) 97,87 %
20.02.2019 01:00 5,2 C 4,4 C 3,9 C 86 % 1019,3 hPa 0,0 l/m 0 min 0 min 0 W/m 6,4 km/h (2 Bft) 100,00 %
_ Min-Zeit 04:24 02:42 04:14 14:40 04:12 - - - - 01:02 05:17
Minimum _ 4,4 C 3,9 C 2,8 C 65 % 1019,0 hPa - - - - 0,0 km/h (0 Bft) 50,00 %
_ Max-Zeit 14:38 14:30 13:10 07:50 00:30 01:00 12:08 01:00 11:14 14:34 01:00
Maximum _ 12,6 C 17,8 C 13,3 C 89 % 1023,0 hPa 0,0 l/m 4 min 0 min 566 W/m 35,4 km/h
S-SO (5 Bft)
100,00 %
Durchschnitt _ 7,8 C 8,0 C 6,7 C 81 % 1020,8 hPa #0,0 l/m #0 min. #0 min. 0 W/m 9,5 km/h (2 Bft) 97,20 %
© 2019 W. Hausmann